Observation data for Persimmon Gap on 12/06/2019      Previous  Date       Current Mesonet Observations  Soil Data  Daily Summary Page  Observations in Plain Language
KPG1 060600Z 27000KT 17/03 A3013 RMK A01 T01710025  RH  038%=      5-min Rain = 0
KPG1 060601Z 33001KT 17/02 A3013 RMK A01 T01700024  RH  038%=      5-min Rain = 0
KPG1 060602Z 33001KT 17/02 A3012 RMK A01 T01650019  RH  037%=      5-min Rain = 0
KPG1 060603Z 02001KT 16/02 A3012 RMK A01 T01580017  RH  038%=      5-min Rain = 0
KPG1 060604Z 03002KT 16/02 A3012 RMK A01 T01560019  RH  040%=      5-min Rain = 0
KPG1 060605Z 04002KT 16/02 A3012 RMK A01 T01550020  RH  040%=      5-min Rain = 0
KPG1 060606Z 04002KT 16/02 A3012 RMK A01 T01560021  RH  040%=      5-min Rain = 0
KPG1 060607Z 03002KT 16/02 A3013 RMK A01 T01570021  RH  040%=      5-min Rain = 0
KPG1 060608Z 02001KT 16/02 A3013 RMK A01 T01560023  RH  041%=      5-min Rain = 0
KPG1 060609Z 01001KT 16/03 A3013 RMK A01 T01580025  RH  041%=      5-min Rain = 0
KPG1 060610Z 03001KT 16/03 A3013 RMK A01 T01620028  RH  041%=      5-min Rain = 0
KPG1 060611Z 03002KT 16/03 A3013 RMK A01 T01640026  RH  040%=      5-min Rain = 0
KPG1 060612Z 05002KT 16/03 A3013 RMK A01 T01610025  RH  040%=      5-min Rain = 0
KPG1 060613Z 04002KT 16/02 A3013 RMK A01 T01610024  RH  040%=      5-min Rain = 0
KPG1 060614Z 04001KT 16/03 A3013 RMK A01 T01600025  RH  040%=      5-min Rain = 0
KPG1 060615Z 03001KT 16/03 A3013 RMK A01 T01610027  RH  041%=      5-min Rain = 0
KPG1 060616Z 15000KT 16/03 A3013 RMK A01 T01640029  RH  040%=      5-min Rain = 0
KPG1 060617Z 13002KT 17/03 A3013 RMK A01 T01680030  RH  040%=      5-min Rain = 0
KPG1 060618Z 03002KT 17/03 A3013 RMK A01 T01690029  RH  039%=      5-min Rain = 0
KPG1 060619Z 02002KT 17/03 A3013 RMK A01 T01670028  RH  039%=      5-min Rain = 0
KPG1 060620Z 04001KT 17/03 A3013 RMK A01 T01650029  RH  040%=      5-min Rain = 0
KPG1 060621Z 02004KT 17/03 A3014 RMK A01 T01660030  RH  040%=      5-min Rain = 0
KPG1 060622Z 02004KT 16/03 A3014 RMK A01 T01630027  RH  040%=      5-min Rain = 0
KPG1 060623Z 03002KT 16/03 A3014 RMK A01 T01620028  RH  041%=      5-min Rain = 0
KPG1 060624Z 04001KT 16/03 A3014 RMK A01 T01620030  RH  041%=      5-min Rain = 0
KPG1 060625Z 18001KT 17/03 A3014 RMK A01 T01650032  RH  041%=      5-min Rain = 0
KPG1 060626Z 18004KT 17/03 A3014 RMK A01 T01680033  RH  041%=      5-min Rain = 0
KPG1 060627Z 21003KT 17/03 A3014 RMK A01 T01700033  RH  040%=      5-min Rain = 0
KPG1 060628Z 22003KT 17/03 A3013 RMK A01 T01710032  RH  039%=      5-min Rain = 0
KPG1 060629Z 22003KT 17/03 A3013 RMK A01 T01700031  RH  039%=      5-min Rain = 0
KPG1 060630Z 22003KT 17/03 A3013 RMK A01 T01670029  RH  039%=      5-min Rain = 0
KPG1 060631Z 21002KT 17/03 A3014 RMK A01 T01660029  RH  040%=      5-min Rain = 0
KPG1 060632Z 22001KT 16/03 A3014 RMK A01 T01640028  RH  040%=      5-min Rain = 0
KPG1 060633Z 35001KT 16/03 A3014 RMK A01 T01610027  RH  041%=      5-min Rain = 0
KPG1 060634Z 36002KT 16/03 A3014 RMK A01 T01580027  RH  041%=      5-min Rain = 0
KPG1 060635Z 02002KT 16/03 A3014 RMK A01 T01570027  RH  042%=      5-min Rain = 0
KPG1 060636Z 03002KT 16/03 A3014 RMK A01 T01550026  RH  042%=      5-min Rain = 0
KPG1 060637Z 04002KT 15/03 A3014 RMK A01 T01540027  RH  042%=      5-min Rain = 0
KPG1 060638Z 03003KT 15/03 A3014 RMK A01 T01530026  RH  043%=      5-min Rain = 0
KPG1 060639Z 03003KT 15/03 A3014 RMK A01 T01500025  RH  043%=      5-min Rain = 0
KPG1 060640Z 05002KT 15/03 A3014 RMK A01 T01480025  RH  043%=      5-min Rain = 0
KPG1 060641Z 04003KT 15/03 A3014 RMK A01 T01460025  RH  044%=      5-min Rain = 0
KPG1 060642Z 04002KT 14/03 A3014 RMK A01 T01440025  RH  045%=      5-min Rain = 0
KPG1 060643Z 04001KT 14/03 A3014 RMK A01 T01430027  RH  046%=      5-min Rain = 0
KPG1 060644Z 04001KT 15/03 A3014 RMK A01 T01450030  RH  046%=      5-min Rain = 0
KPG1 060645Z 04002KT 15/03 A3014 RMK A01 T01490032  RH  045%=      5-min Rain = 0
KPG1 060646Z 04002KT 15/03 A3014 RMK A01 T01520032  RH  045%=      5-min Rain = 0
KPG1 060647Z 04002KT 15/03 A3014 RMK A01 T01540033  RH  044%=      5-min Rain = 0
KPG1 060648Z 04002KT 16/04 A3014 RMK A01 T01570035  RH  044%=      5-min Rain = 0
KPG1 060649Z 07002KT 16/04 A3014 RMK A01 T01610035  RH  043%=      5-min Rain = 0
KPG1 060650Z 07001KT 17/04 A3014 RMK A01 T01650037  RH  042%=      5-min Rain = 0
KPG1 060651Z 04001KT 17/03 A3014 RMK A01 T01660034  RH  041%=      5-min Rain = 0
KPG1 060652Z 02002KT 16/03 A3014 RMK A01 T01640034  RH  042%=      5-min Rain = 0
KPG1 060653Z 00003KT 16/03 A3014 RMK A01 T01640034  RH  042%=      5-min Rain = 0
KPG1 060654Z 01003KT 16/04 A3014 RMK A01 T01640035  RH  042%=      5-min Rain = 0
KPG1 060655Z 02003KT 17/04 A3014 RMK A01 T01700039  RH  042%=      5-min Rain = 0
KPG1 060656Z 03001KT 17/04 A3014 RMK A01 T01730039  RH  041%=      5-min Rain = 0
KPG1 060657Z 05001KT 17/04 A3014 RMK A01 T01740037  RH  040%=      5-min Rain = 0
KPG1 060658Z 07001KT 17/03 A3014 RMK A01 T01680031  RH  040%=      5-min Rain = 0
KPG1 060659Z 04002KT 16/03 A3014 RMK A01 T01600029  RH  041%=      5-min Rain = 0
KPG1 060700Z 02001KT 15/03 A3014 RMK A01 T01540028  RH  043%=      5-min Rain = 0
KPG1 060701Z 03001KT 15/03 A3014 RMK A01 T01520031  RH  044%=      5-min Rain = 0
KPG1 060702Z 03002KT 15/03 A3014 RMK A01 T01510030  RH  044%=      5-min Rain = 0
KPG1 060703Z 01002KT 15/03 A3014 RMK A01 T01480031  RH  045%=      5-min Rain = 0
KPG1 060704Z 03000KT 15/04 A3014 RMK A01 T01500037  RH  046%=      5-min Rain = 0
KPG1 060705Z 08001KT 16/04 A3014 RMK A01 T01550037  RH  045%=      5-min Rain = 0
KPG1 060706Z 06002KT 15/03 A3014 RMK A01 T01540032  RH  044%=      5-min Rain = 0
KPG1 060707Z 07001KT 15/03 A3015 RMK A01 T01500031  RH  045%=      5-min Rain = 0
KPG1 060708Z 11001KT 15/03 A3015 RMK A01 T01490033  RH  046%=      5-min Rain = 0
KPG1 060709Z 12001KT 15/04 A3015 RMK A01 T01490036  RH  046%=      5-min Rain = 0
KPG1 060710Z 14001KT 15/04 A3015 RMK A01 T01510037  RH  046%=      5-min Rain = 0
KPG1 060711Z 00000KT 15/04 A3015 RMK A01 T01520036  RH  046%=      5-min Rain = 0
KPG1 060712Z 00000KT 15/04 A3015 RMK A01 T01530037  RH  046%=      5-min Rain = 0
KPG1 060713Z 08000KT 15/04 A3015 RMK A01 T01540038  RH  046%=      5-min Rain = 0
KPG1 060714Z 14001KT 15/04 A3015 RMK A01 T01540038  RH  046%=      5-min Rain = 0
KPG1 060715Z 14000KT 16/04 A3015 RMK A01 T01550038  RH  045%=      5-min Rain = 0
KPG1 060716Z 11000KT 16/04 A3015 RMK A01 T01550037  RH  045%=      5-min Rain = 0
KPG1 060717Z 11000KT 15/04 A3015 RMK A01 T01540037  RH  046%=      5-min Rain = 0
KPG1 060718Z 33000KT 16/04 A3015 RMK A01 T01550038  RH  046%=      5-min Rain = 0
KPG1 060719Z 17001KT 16/04 A3015 RMK A01 T01570039  RH  045%=      5-min Rain = 0
KPG1 060720Z 17001KT 16/04 A3015 RMK A01 T01580038  RH  045%=      5-min Rain = 0
KPG1 060721Z 18001KT 16/04 A3015 RMK A01 T01600038  RH  044%=      5-min Rain = 0
KPG1 060722Z 18000KT 16/04 A3015 RMK A01 T01610038  RH  044%=      5-min Rain = 0
KPG1 060723Z 19000KT 16/04 A3015 RMK A01 T01620038  RH  044%=      5-min Rain = 0
KPG1 060724Z 19002KT 16/04 A3015 RMK A01 T01620038  RH  043%=      5-min Rain = 0
KPG1 060725Z 19002KT 16/04 A3015 RMK A01 T01630037  RH  043%=      5-min Rain = 0
KPG1 060726Z 20002KT 16/04 A3015 RMK A01 T01630037  RH  043%=      5-min Rain = 0
KPG1 060727Z 19001KT 16/04 A3015 RMK A01 T01630036  RH  043%=      5-min Rain = 0
KPG1 060728Z 19000KT 16/04 A3015 RMK A01 T01620036  RH  043%=      5-min Rain = 0
KPG1 060729Z 00000KT 16/04 A3015 RMK A01 T01610035  RH  043%=      5-min Rain = 0
KPG1 060730Z 00000KT 16/04 A3015 RMK A01 T01610035  RH  043%=      5-min Rain = 0
KPG1 060731Z 00000KT 16/04 A3015 RMK A01 T01610035  RH  043%=      5-min Rain = 0
KPG1 060732Z 00000KT 16/04 A3015 RMK A01 T01610035  RH  043%=      5-min Rain = 0
KPG1 060733Z 00000KT 16/03 A3015 RMK A01 T01610034  RH  043%=      5-min Rain = 0
KPG1 060734Z 00000KT 16/03 A3016 RMK A01 T01610034  RH  042%=      5-min Rain = 0
KPG1 060735Z 00000KT 16/03 A3016 RMK A01 T01610034  RH  042%=      5-min Rain = 0
KPG1 060736Z 00000KT 16/03 A3016 RMK A01 T01610032  RH  042%=      5-min Rain = 0
KPG1 060737Z 13000KT 16/03 A3016 RMK A01 T01610033  RH  042%=      5-min Rain = 0
KPG1 060738Z 14002KT 16/03 A3016 RMK A01 T01620033  RH  042%=      5-min Rain = 0
KPG1 060739Z 15002KT 16/03 A3016 RMK A01 T01600030  RH  042%=      5-min Rain = 0
KPG1 060740Z 13001KT 15/03 A3015 RMK A01 T01530028  RH  043%=      5-min Rain = 0
KPG1 060741Z 07000KT 15/03 A3015 RMK A01 T01470027  RH  044%=      5-min Rain = 0
KPG1 060742Z 05001KT 14/02 A3015 RMK A01 T01410024  RH  045%=      5-min Rain = 0
KPG1 060743Z 03001KT 14/03 A3015 RMK A01 T01400028  RH  047%=      5-min Rain = 0
KPG1 060744Z 05002KT 14/03 A3015 RMK A01 T01440030  RH  046%=      5-min Rain = 0
KPG1 060745Z 08001KT 14/03 A3015 RMK A01 T01430030  RH  046%=      5-min Rain = 0
KPG1 060746Z 08001KT 14/03 A3015 RMK A01 T01430031  RH  047%=      5-min Rain = 0
KPG1 060747Z 00000KT 14/03 A3015 RMK A01 T01440031  RH  047%=      5-min Rain = 0
KPG1 060748Z 01001KT 15/03 A3015 RMK A01 T01470032  RH  046%=      5-min Rain = 0
KPG1 060749Z 34002KT 15/03 A3015 RMK A01 T01500033  RH  045%=      5-min Rain = 0
KPG1 060750Z 35001KT 16/04 A3016 RMK A01 T01550035  RH  044%=      5-min Rain = 0
KPG1 060751Z 11001KT 16/04 A3016 RMK A01 T01600036  RH  044%=      5-min Rain = 0
KPG1 060752Z 17002KT 16/04 A3016 RMK A01 T01620036  RH  043%=      5-min Rain = 0
KPG1 060753Z 18001KT 16/04 A3016 RMK A01 T01640038  RH  043%=      5-min Rain = 0
KPG1 060754Z 26001KT 16/04 A3016 RMK A01 T01640035  RH  042%=      5-min Rain = 0
KPG1 060755Z 22001KT 16/04 A3016 RMK A01 T01630035  RH  042%=      5-min Rain = 0
KPG1 060756Z 17001KT 16/04 A3016 RMK A01 T01620037  RH  043%=      5-min Rain = 0
KPG1 060757Z 17001KT 16/04 A3016 RMK A01 T01630037  RH  043%=      5-min Rain = 0
KPG1 060758Z 14002KT 16/03 A3016 RMK A01 T01620033  RH  042%=      5-min Rain = 0
KPG1 060759Z 13001KT 15/03 A3016 RMK A01 T01540029  RH  043%=      5-min Rain = 0
KPG1 060800Z 13000KT 15/03 A3016 RMK A01 T01510032  RH  045%=      5-min Rain = 0
KPG1 060801Z 13001KT 15/03 A3016 RMK A01 T01520034  RH  045%=      5-min Rain = 0
KPG1 060802Z 10002KT 15/03 A3016 RMK A01 T01510031  RH  045%=      5-min Rain = 0
KPG1 060803Z 07002KT 15/03 A3016 RMK A01 T01450029  RH  045%=      5-min Rain = 0
KPG1 060804Z 04002KT 14/03 A3016 RMK A01 T01410029  RH  047%=      5-min Rain = 0
KPG1 060805Z 04000KT 14/03 A3016 RMK A01 T01390031  RH  048%=      5-min Rain = 0
KPG1 060806Z 04000KT 14/04 A3016 RMK A01 T01410035  RH  049%=      5-min Rain = 0
KPG1 060807Z 00000KT 14/04 A3016 RMK A01 T01440036  RH  048%=      5-min Rain = 0
KPG1 060808Z 15001KT 15/04 A3016 RMK A01 T01460036  RH  048%=      5-min Rain = 0
KPG1 060809Z 16001KT 15/04 A3016 RMK A01 T01480041  RH  049%=      5-min Rain = 0
KPG1 060810Z 19000KT 15/04 A3016 RMK A01 T01500041  RH  048%=      5-min Rain = 0
KPG1 060811Z 07000KT 15/04 A3016 RMK A01 T01500039  RH  047%=      5-min Rain = 0
KPG1 060812Z 00000KT 15/04 A3016 RMK A01 T01510040  RH  047%=      5-min Rain = 0
KPG1 060813Z 02000KT 15/04 A3016 RMK A01 T01510041  RH  048%=      5-min Rain = 0
KPG1 060814Z 03001KT 15/04 A3016 RMK A01 T01510037  RH  046%=      5-min Rain = 0
KPG1 060815Z 05001KT 15/04 A3016 RMK A01 T01490040  RH  048%=      5-min Rain = 0
KPG1 060816Z 05001KT 15/04 A3016 RMK A01 T01510044  RH  049%=      5-min Rain = 0
KPG1 060817Z 03004KT 15/04 A3017 RMK A01 T01520037  RH  046%=      5-min Rain = 0
KPG1 060818Z 36003KT 14/03 A3017 RMK A01 T01440032  RH  047%=      5-min Rain = 0
KPG1 060819Z 35005KT 14/04 A3017 RMK A01 T01410035  RH  049%=      5-min Rain = 0
KPG1 060820Z 02003KT 15/04 A3017 RMK A01 T01450042  RH  050%=      5-min Rain = 0
KPG1 060821Z 03005KT 15/04 A3017 RMK A01 T01500044  RH  049%=      5-min Rain = 0
KPG1 060822Z 01005KT 15/04 A3017 RMK A01 T01520044  RH  048%=      5-min Rain = 0
KPG1 060823Z 01006KT 15/04 A3017 RMK A01 T01520044  RH  048%=      5-min Rain = 0
KPG1 060824Z 01005KT 15/04 A3017 RMK A01 T01540044  RH  048%=      5-min Rain = 0
KPG1 060825Z 02006KT 15/04 A3017 RMK A01 T01540043  RH  048%=      5-min Rain = 0
KPG1 060826Z 03007KT 15/05 A3017 RMK A01 T01540046  RH  049%=      5-min Rain = 0
KPG1 060827Z 03006KT 16/05 A3017 RMK A01 T01550047  RH  049%=      5-min Rain = 0
KPG1 060828Z 02006KT 15/05 A3017 RMK A01 T01530046  RH  049%=      5-min Rain = 0
KPG1 060829Z 02006KT 15/05 A3017 RMK A01 T01500045  RH  049%=      5-min Rain = 0
KPG1 060830Z 02007KT 15/05 A3017 RMK A01 T01490046  RH  050%=      5-min Rain = 0
KPG1 060831Z 02007KT 15/05 A3017 RMK A01 T01500047  RH  050%=      5-min Rain = 0
KPG1 060832Z 02007KT 15/05 A3017 RMK A01 T01490047  RH  050%=      5-min Rain = 0
KPG1 060833Z 01007KT 15/05 A3017 RMK A01 T01490047  RH  050%=      5-min Rain = 0
KPG1 060834Z 02007KT 15/05 A3017 RMK A01 T01490047  RH  051%=      5-min Rain = 0
KPG1 060835Z 02009KT 15/05 A3017 RMK A01 T01490048  RH  051%=      5-min Rain = 0
KPG1 060836Z 02009KT 15/05 A3017 RMK A01 T01510049  RH  051%=      5-min Rain = 0
KPG1 060837Z 02008KT 16/05 A3017 RMK A01 T01550052  RH  050%=      5-min Rain = 0
KPG1 060838Z 01008KT 16/05 A3017 RMK A01 T01590052  RH  049%=      5-min Rain = 0
KPG1 060839Z 01007KT 16/05 A3017 RMK A01 T01610052  RH  048%=      5-min Rain = 0
KPG1 060840Z 01009KT 16/05 A3017 RMK A01 T01620051  RH  048%=      5-min Rain = 0
KPG1 060841Z 00008KT 16/05 A3017 RMK A01 T01620051  RH  048%=      5-min Rain = 0
KPG1 060842Z 00007KT 16/05 A3017 RMK A01 T01640051  RH  047%=      5-min Rain = 0
KPG1 060843Z 00007KT 17/05 A3017 RMK A01 T01650051  RH  047%=      5-min Rain = 0
KPG1 060844Z 01008KT 16/05 A3018 RMK A01 T01640050  RH  047%=      5-min Rain = 0
KPG1 060845Z 01009KT 16/05 A3018 RMK A01 T01630050  RH  047%=      5-min Rain = 0
KPG1 060846Z 01008KT 16/05 A3018 RMK A01 T01620050  RH  047%=      5-min Rain = 0
KPG1 060847Z 02009KT 16/05 A3018 RMK A01 T01620050  RH  047%=      5-min Rain = 0
KPG1 060848Z 01008KT 16/05 A3018 RMK A01 T01620050  RH  047%=      5-min Rain = 0
KPG1 060849Z 01009KT 16/05 A3018 RMK A01 T01620050  RH  047%=      5-min Rain = 0
KPG1 060850Z 00009KT 16/05 A3018 RMK A01 T01620050  RH  047%=      5-min Rain = 0
KPG1 060851Z 01009KT 16/05 A3018 RMK A01 T01590047  RH  047%=      5-min Rain = 0
KPG1 060852Z 00008KT 16/05 A3018 RMK A01 T01560047  RH  048%=      5-min Rain = 0
KPG1 060853Z 01007KT 15/05 A3018 RMK A01 T01540047  RH  049%=      5-min Rain = 0
KPG1 060854Z 00007KT 15/05 A3018 RMK A01 T01540048  RH  049%=      5-min Rain = 0
KPG1 060855Z 00006KT 15/05 A3018 RMK A01 T01540048  RH  049%=      5-min Rain = 0
KPG1 060856Z 36006KT 16/05 A3018 RMK A01 T01550049  RH  049%=      5-min Rain = 0
KPG1 060857Z 36004KT 16/05 A3018 RMK A01 T01570050  RH  049%=      5-min Rain = 0
KPG1 060858Z 01003KT 16/05 A3018 RMK A01 T01570047  RH  048%=      5-min Rain = 0
KPG1 060859Z 04005KT 15/04 A3018 RMK A01 T01520043  RH  048%=      5-min Rain = 0
KPG1 060900Z 05006KT 15/04 A3018 RMK A01 T01470044  RH  050%=      5-min Rain = 0
KPG1 060901Z 05007KT 15/05 A3018 RMK A01 T01450045  RH  051%=      5-min Rain = 0
KPG1 060902Z 06006KT 15/05 A3018 RMK A01 T01450046  RH  051%=      5-min Rain = 0
KPG1 060903Z 07007KT 15/05 A3018 RMK A01 T01450046  RH  051%=      5-min Rain = 0
KPG1 060904Z 06007KT 15/05 A3018 RMK A01 T01480050  RH  052%=      5-min Rain = 0
KPG1 060905Z 06006KT 15/05 A3018 RMK A01 T01530051  RH  051%=      5-min Rain = 0
KPG1 060906Z 05006KT 16/05 A3018 RMK A01 T01560051  RH  050%=      5-min Rain = 0
KPG1 060907Z 05006KT 16/05 A3018 RMK A01 T01580052  RH  049%=      5-min Rain = 0
KPG1 060908Z 05005KT 16/05 A3018 RMK A01 T01600051  RH  048%=      5-min Rain = 0
KPG1 060909Z 04006KT 16/05 A3018 RMK A01 T01600051  RH  048%=      5-min Rain = 0
KPG1 060910Z 05006KT 16/05 A3018 RMK A01 T01600050  RH  048%=      5-min Rain = 0
KPG1 060911Z 04006KT 16/05 A3018 RMK A01 T01600051  RH  048%=      5-min Rain = 0
KPG1 060912Z 03006KT 16/05 A3018 RMK A01 T01590050  RH  048%=      5-min Rain = 0
KPG1 060913Z 02006KT 16/05 A3018 RMK A01 T01580050  RH  048%=      5-min Rain = 0
KPG1 060914Z 02006KT 16/05 A3019 RMK A01 T01580050  RH  049%=      5-min Rain = 0
KPG1 060915Z 01006KT 16/05 A3019 RMK A01 T01620052  RH  048%=      5-min Rain = 0
KPG1 060916Z 00006KT 16/05 A3019 RMK A01 T01640052  RH  047%=      5-min Rain = 0
KPG1 060917Z 35006KT 17/05 A3019 RMK A01 T01650052  RH  047%=      5-min Rain = 0
KPG1 060918Z 34007KT 17/05 A3019 RMK A01 T01680053  RH  047%=      5-min Rain = 0
KPG1 060919Z 35007KT 17/05 A3019 RMK A01 T01700053  RH  046%=      5-min Rain = 0
KPG1 060920Z 34007KT 17/05 A3019 RMK A01 T01720053  RH  045%=      5-min Rain = 0
KPG1 060921Z 35008KT 17/05 A3019 RMK A01 T01740053  RH  045%=      5-min Rain = 0
KPG1 060922Z 35008KT 18/05 A3019 RMK A01 T01750053  RH  044%=      5-min Rain = 0
KPG1 060923Z 34007KT 18/05 A3019 RMK A01 T01760052  RH  044%=      5-min Rain = 0
KPG1 060924Z 34006KT 18/05 A3019 RMK A01 T01760053  RH  044%=      5-min Rain = 0
KPG1 060925Z 34007KT 18/05 A3019 RMK A01 T01770053  RH  044%=      5-min Rain = 0
KPG1 060926Z 35008KT 18/05 A3019 RMK A01 T01770053  RH  044%=      5-min Rain = 0
KPG1 060927Z 35007KT 18/05 A3019 RMK A01 T01770052  RH  044%=      5-min Rain = 0
KPG1 060928Z 35006KT 18/05 A3019 RMK A01 T01770052  RH  044%=      5-min Rain = 0
KPG1 060929Z 35006KT 18/05 A3019 RMK A01 T01770052  RH  044%=      5-min Rain = 0
KPG1 060930Z 35007KT 18/05 A3019 RMK A01 T01770052  RH  044%=      5-min Rain = 0
KPG1 060931Z 36006KT 18/05 A3019 RMK A01 T01750051  RH  044%=      5-min Rain = 0
KPG1 060932Z 00007KT 17/05 A3019 RMK A01 T01740051  RH  044%=      5-min Rain = 0
KPG1 060933Z 01007KT 17/05 A3019 RMK A01 T01740051  RH  044%=      5-min Rain = 0
KPG1 060934Z 02006KT 17/05 A3019 RMK A01 T01740051  RH  044%=      5-min Rain = 0
KPG1 060935Z 01007KT 17/05 A3019 RMK A01 T01740051  RH  044%=      5-min Rain = 0
KPG1 060936Z 00007KT 17/05 A3019 RMK A01 T01740052  RH  044%=      5-min Rain = 0
KPG1 060937Z 00006KT 17/05 A3019 RMK A01 T01740052  RH  045%=      5-min Rain = 0
KPG1 060938Z 01006KT 17/05 A3019 RMK A01 T01730051  RH  045%=      5-min Rain = 0
KPG1 060939Z 00006KT 17/05 A3019 RMK A01 T01720051  RH  045%=      5-min Rain = 0
KPG1 060940Z 01005KT 17/05 A3019 RMK A01 T01710051  RH  045%=      5-min Rain = 0
KPG1 060941Z 00007KT 17/05 A3019 RMK A01 T01690050  RH  045%=      5-min Rain = 0
KPG1 060942Z 36006KT 17/05 A3019 RMK A01 T01690050  RH  045%=      5-min Rain = 0
KPG1 060943Z 35009KT 17/05 A3019 RMK A01 T01690050  RH  045%=      5-min Rain = 0
KPG1 060944Z 35008KT 17/05 A3019 RMK A01 T01710051  RH  045%=      5-min Rain = 0
KPG1 060945Z 35008KT 17/05 A3019 RMK A01 T01720050  RH  045%=      5-min Rain = 0
KPG1 060946Z 35009KT 17/05 A3019 RMK A01 T01720050  RH  044%=      5-min Rain = 0
KPG1 060947Z 35009KT 17/05 A3019 RMK A01 T01720050  RH  044%=      5-min Rain = 0
KPG1 060948Z 35010KT 17/05 A3019 RMK A01 T01730050  RH  044%=      5-min Rain = 0
KPG1 060949Z 35009KT 17/05 A3019 RMK A01 T01730049  RH  044%=      5-min Rain = 0
KPG1 060950Z 35010KT 17/05 A3019 RMK A01 T01740049  RH  044%=      5-min Rain = 0
KPG1 060951Z 35009KT 17/05 A3019 RMK A01 T01740048  RH  043%=      5-min Rain = 0
KPG1 060952Z 35010KT 18/05 A3019 RMK A01 T01750048  RH  043%=      5-min Rain = 0
KPG1 060953Z 35011KT 17/05 A3019 RMK A01 T01740046  RH  043%=      5-min Rain = 0
KPG1 060954Z 00011KT 18/05 A302 RMK A01 T01750045  RH  042%=      5-min Rain = 0
KPG1 060955Z 35011KT 18/04 A302 RMK A01 T01760042  RH  041%=      5-min Rain = 0
KPG1 060956Z 35011KT 18/04 A302 RMK A01 T01760040  RH  040%=      5-min Rain = 0
KPG1 060957Z 36011KT 18/04 A302 RMK A01 T01760038  RH  040%=      5-min Rain = 0
KPG1 060958Z 35011KT 18/04 A302 RMK A01 T01760037  RH  040%=      5-min Rain = 0
KPG1 060959Z 35012KT 18/04 A302 RMK A01 T01760037  RH  039%=      5-min Rain = 0
KPG1 061000Z 35012KT 18/04 A302 RMK A01 T01770037  RH  039%=      5-min Rain = 0
KPG1 061001Z 35012KT 18/04 A302 RMK A01 T01770037  RH  039%=      5-min Rain = 0
KPG1 061002Z 36012KT 18/04 A3019 RMK A01 T01780037  RH  039%=      5-min Rain = 0
KPG1 061003Z 35012KT 18/04 A302 RMK A01 T01780037  RH  039%=      5-min Rain = 0
KPG1 061004Z 35011KT 18/04 A302 RMK A01 T01780035  RH  039%=      5-min Rain = 0
KPG1 061005Z 35012KT 18/03 A302 RMK A01 T01780034  RH  038%=      5-min Rain = 0
KPG1 061006Z 35012KT 18/03 A302 RMK A01 T01780034  RH  038%=      5-min Rain = 0
KPG1 061007Z 36012KT 18/03 A302 RMK A01 T01780034  RH  038%=      5-min Rain = 0
KPG1 061008Z 00011KT 18/03 A302 RMK A01 T01780033  RH  038%=      5-min Rain = 0
KPG1 061009Z 00010KT 18/03 A302 RMK A01 T01780034  RH  038%=      5-min Rain = 0
KPG1 061010Z 00009KT 18/03 A302 RMK A01 T01770034  RH  039%=      5-min Rain = 0
KPG1 061011Z 00011KT 18/03 A302 RMK A01 T01750034  RH  039%=      5-min Rain = 0
KPG1 061012Z 00010KT 18/04 A302 RMK A01 T01750035  RH  039%=      5-min Rain = 0
KPG1 061013Z 36010KT 18/04 A302 RMK A01 T01750035  RH  039%=      5-min Rain = 0
KPG1 061014Z 00011KT 18/03 A302 RMK A01 T01750034  RH  039%=      5-min Rain = 0
KPG1 061015Z 35011KT 18/03 A302 RMK A01 T01750033  RH  039%=      5-min Rain = 0
KPG1 061016Z 36011KT 18/03 A302 RMK A01 T01750032  RH  039%=      5-min Rain = 0
KPG1 061017Z 35011KT 18/03 A302 RMK A01 T01750031  RH  038%=      5-min Rain = 0
KPG1 061018Z 35012KT 17/03 A302 RMK A01 T01740030  RH  038%=      5-min Rain = 0
KPG1 061019Z 35014KT 17/03 A302 RMK A01 T01740029  RH  038%=      5-min Rain = 0
KPG1 061020Z 35012KT 17/03 A302 RMK A01 T01740027  RH  037%=      5-min Rain = 0
KPG1 061021Z 35012KT 18/03 A302 RMK A01 T01750025  RH  037%=      5-min Rain = 0
KPG1 061022Z 36011KT 17/02 A302 RMK A01 T01740024  RH  037%=      5-min Rain = 0
KPG1 061023Z 00012KT 17/02 A302 RMK A01 T01740024  RH  036%=      5-min Rain = 0
KPG1 061024Z 36013KT 17/02 A302 RMK A01 T01740023  RH  036%=      5-min Rain = 0
KPG1 061025Z 36012KT 18/02 A302 RMK A01 T01750022  RH  036%=      5-min Rain = 0
KPG1 061026Z 36013KT 17/02 A302 RMK A01 T01740021  RH  036%=      5-min Rain = 0
KPG1 061027Z 00012KT 18/02 A3021 RMK A01 T01750022  RH  036%=      5-min Rain = 0
KPG1 061028Z 36011KT 18/02 A3021 RMK A01 T01750023  RH  036%=      5-min Rain = 0
KPG1 061029Z 36011KT 17/02 A3021 RMK A01 T01740023  RH  036%=      5-min Rain = 0
KPG1 061030Z 36013KT 17/02 A3021 RMK A01 T01730023  RH  037%=      5-min Rain = 0
KPG1 061031Z 35012KT 17/02 A3021 RMK A01 T01730023  RH  037%=      5-min Rain = 0
KPG1 061032Z 35013KT 17/02 A3021 RMK A01 T01730023  RH  036%=      5-min Rain = 0
KPG1 061033Z 35013KT 17/02 A3021 RMK A01 T01730023  RH  036%=      5-min Rain = 0
KPG1 061034Z 35012KT 17/02 A3021 RMK A01 T01730022  RH  036%=      5-min Rain = 0
KPG1 061035Z 35010KT 17/02 A3021 RMK A01 T01730021  RH  036%=      5-min Rain = 0
KPG1 061036Z 35013KT 17/02 A3021 RMK A01 T01720021  RH  036%=      5-min Rain = 0
KPG1 061037Z 35014KT 17/02 A3021 RMK A01 T01720021  RH  036%=      5-min Rain = 0
KPG1 061038Z 36015KT 17/02 A3021 RMK A01 T01720020  RH  036%=      5-min Rain = 0
KPG1 061039Z 35014KT 17/02 A3021 RMK A01 T01720020  RH  036%=      5-min Rain = 0
KPG1 061040Z 35014KT 17/02 A3021 RMK A01 T01720019  RH  036%=      5-min Rain = 0
KPG1 061041Z 36014KT 17/02 A3021 RMK A01 T01720019  RH  036%=      5-min Rain = 0
KPG1 061042Z 35013KT 17/02 A3021 RMK A01 T01720019  RH  036%=      5-min Rain = 0
KPG1 061043Z 35014KT 17/02 A3021 RMK A01 T01720019  RH  036%=      5-min Rain = 0
KPG1 061044Z 35015KT 17/02 A3021 RMK A01 T01720019  RH  036%=      5-min Rain = 0
KPG1 061045Z 35014KT 17/02 A3021 RMK A01 T01720019  RH  036%=      5-min Rain = 0
KPG1 061046Z 35014KT 17/02 A3021 RMK A01 T01730019  RH  036%=      5-min Rain = 0
KPG1 061047Z 35014KT 17/02 A3021 RMK A01 T01730019  RH  036%=      5-min Rain = 0
KPG1 061048Z 36015KT 17/02 A3021 RMK A01 T01730019  RH  036%=      5-min Rain = 0
KPG1 061049Z 35014KT 17/02 A3021 RMK A01 T01720019  RH  036%=      5-min Rain = 0
KPG1 061050Z 36014KT 17/02 A3021 RMK A01 T01720018  RH  036%=      5-min Rain = 0
KPG1 061051Z 01012KT 17/02 A3021 RMK A01 T01710018  RH  036%=      5-min Rain = 0
KPG1 061052Z 00012KT 17/02 A3021 RMK A01 T01700018  RH  036%=      5-min Rain = 0
KPG1 061053Z 00011KT 17/02 A3021 RMK A01 T01700018  RH  036%=      5-min Rain = 0
KPG1 061054Z 01012KT 17/02 A3021 RMK A01 T01690018  RH  036%=      5-min Rain = 0
KPG1 061055Z 00011KT 17/02 A3021 RMK A01 T01690018  RH  036%=      5-min Rain = 0
KPG1 061056Z 01011KT 17/02 A3022 RMK A01 T01690018  RH  036%=      5-min Rain = 0
KPG1 061057Z 01012KT 17/02 A3022 RMK A01 T01690018  RH  036%=      5-min Rain = 0
KPG1 061058Z 00011KT 17/02 A3022 RMK A01 T01680018  RH  036%=      5-min Rain = 0
KPG1 061059Z 01012KT 17/02 A3022 RMK A01 T01680018  RH  036%=      5-min Rain = 0
KPG1 061100Z 00013G18KT 17/02 A3022 RMK A01 T01680018  RH  036%=      5-min Rain = 0
KPG1 061101Z 01014KT 17/02 A3022 RMK A01 T01680017  RH  036%=      5-min Rain = 0
KPG1 061102Z 01014KT 17/02 A3022 RMK A01 T01680017  RH  036%=      5-min Rain = 0
KPG1 061103Z 01015KT 17/02 A3021 RMK A01 T01680017  RH  036%=      5-min Rain = 0
KPG1 061104Z 00013KT 17/02 A3022 RMK A01 T01680018  RH  036%=      5-min Rain = 0
KPG1 061105Z 01012KT 17/02 A3022 RMK A01 T01670018  RH  036%=      5-min Rain = 0
KPG1 061106Z 00013KT 17/02 A3022 RMK A01 T01660018  RH  037%=      5-min Rain = 0
KPG1 061107Z 00012KT 17/02 A3022 RMK A01 T01660018  RH  037%=      5-min Rain = 0
KPG1 061108Z 36010KT 17/02 A3022 RMK A01 T01650017  RH  037%=      5-min Rain = 0
KPG1 061109Z 01010KT 17/02 A3022 RMK A01 T01650017  RH  037%=      5-min Rain = 0
KPG1 061110Z 01012KT 16/02 A3022 RMK A01 T01640017  RH  037%=      5-min Rain = 0
KPG1 061111Z 01013KT 16/02 A3022 RMK A01 T01630017  RH  037%=      5-min Rain = 0
KPG1 061112Z 01014KT 16/02 A3022 RMK A01 T01640017  RH  037%=      5-min Rain = 0
KPG1 061113Z 01013KT 16/02 A3022 RMK A01 T01640017  RH  037%=      5-min Rain = 0
KPG1 061114Z 00014KT 17/02 A3022 RMK A01 T01650017  RH  037%=      5-min Rain = 0
KPG1 061115Z 01013KT 16/02 A3022 RMK A01 T01640017  RH  037%=      5-min Rain = 0
KPG1 061116Z 01011KT 17/02 A3022 RMK A01 T01650017  RH  037%=      5-min Rain = 0
KPG1 061117Z 01013KT 16/02 A3022 RMK A01 T01640017  RH  037%=      5-min Rain = 0
KPG1 061118Z 01014KT 16/02 A3022 RMK A01 T01640017  RH  037%=      5-min Rain = 0
KPG1 061119Z 01014KT 17/02 A3022 RMK A01 T01650017  RH  037%=      5-min Rain = 0
KPG1 061120Z 01013KT 17/02 A3022 RMK A01 T01650017  RH  037%=      5-min Rain = 0
KPG1 061121Z 01012KT 17/02 A3022 RMK A01 T01650017  RH  037%=      5-min Rain = 0
KPG1 061122Z 01013G18KT 16/02 A3022 RMK A01 T01630016  RH  037%=      5-min Rain = 0
KPG1 061123Z 00014KT 16/02 A3022 RMK A01 T01630017  RH  037%=      5-min Rain = 0
KPG1 061124Z 01012KT 16/02 A3022 RMK A01 T01630017  RH  037%=      5-min Rain = 0
KPG1 061125Z 01014KT 16/02 A3022 RMK A01 T01630016  RH  037%=      5-min Rain = 0
KPG1 061126Z 01014KT 16/02 A3022 RMK A01 T01630016  RH  037%=      5-min Rain = 0
KPG1 061127Z 01014KT 16/02 A3022 RMK A01 T01630017  RH  037%=      5-min Rain = 0
KPG1 061128Z 01015KT 16/02 A3022 RMK A01 T01630016  RH  037%=      5-min Rain = 0
KPG1 061129Z 01015KT 16/02 A3022 RMK A01 T01630015  RH  037%=      5-min Rain = 0
KPG1 061130Z 01015KT 16/01 A3022 RMK A01 T01630014  RH  037%=      5-min Rain = 0
KPG1 061131Z 01015KT 16/01 A3022 RMK A01 T01630014  RH  037%=      5-min Rain = 0
KPG1 061132Z 01014G19KT 16/01 A3022 RMK A01 T01630014  RH  037%=      5-min Rain = 0
KPG1 061133Z 00016KT 16/01 A3022 RMK A01 T01620013  RH  037%=      5-min Rain = 0
KPG1 061134Z 01017G22KT 16/01 A3022 RMK A01 T01620012  RH  036%=      5-min Rain = 0
KPG1 061135Z 01014KT 16/01 A3022 RMK A01 T01620013  RH  036%=      5-min Rain = 0
KPG1 061136Z 01012G18KT 16/01 A3022 RMK A01 T01620012  RH  036%=      5-min Rain = 0
KPG1 061137Z 01012KT 16/01 A3022 RMK A01 T01620012  RH  036%=      5-min Rain = 0
KPG1 061138Z 01011KT 16/01 A3022 RMK A01 T01610013  RH  037%=      5-min Rain = 0
KPG1 061139Z 01012G17KT 16/01 A3022 RMK A01 T01610013  RH  037%=      5-min Rain = 0
KPG1 061140Z 00011KT 16/01 A3023 RMK A01 T01600012  RH  037%=      5-min Rain = 0
KPG1 061141Z 36012KT 16/01 A3023 RMK A01 T01590012  RH  037%=      5-min Rain = 0
KPG1 061142Z 36015KT 16/01 A3022 RMK A01 T01580011  RH  037%=      5-min Rain = 0
KPG1 061143Z 36012KT 16/01 A3023 RMK A01 T01580010  RH  037%=      5-min Rain = 0
KPG1 061144Z 35015KT 16/01 A3022 RMK A01 T01580010  RH  037%=      5-min Rain = 0
KPG1 061145Z 36015KT 16/01 A3022 RMK A01 T01580011  RH  037%=      5-min Rain = 0
KPG1 061146Z 35015KT 16/01 A3022 RMK A01 T01590011  RH  037%=      5-min Rain = 0
KPG1 061147Z 35014KT 16/01 A3022 RMK A01 T01590010  RH  037%=      5-min Rain = 0
KPG1 061148Z 35016KT 16/01 A3022 RMK A01 T01580010  RH  037%=      5-min Rain = 0
KPG1 061149Z 35017KT 16/01 A3022 RMK A01 T01580008  RH  036%=      5-min Rain = 0
KPG1 061150Z 35015KT 16/01 A3022 RMK A01 T01590007  RH  036%=      5-min Rain = 0
KPG1 061151Z 35016KT 16/01 A3022 RMK A01 T01590006  RH  035%=      5-min Rain = 0
KPG1 061152Z 35018KT 16/01 A3023 RMK A01 T01590006  RH  035%=      5-min Rain = 0
KPG1 061153Z 36014KT 16/01 A3023 RMK A01 T01600005  RH  035%=      5-min Rain = 0
KPG1 061154Z 35014KT 16/00 A3023 RMK A01 T01590004  RH  035%=      5-min Rain = 0
KPG1 061155Z 00014KT 16/00 A3023 RMK A01 T01590003  RH  035%=      5-min Rain = 0
KPG1 061156Z 36013KT 16/00 A3023 RMK A01 T01590003  RH  035%=      5-min Rain = 0
KPG1 061157Z 36013KT 16/00 A3023 RMK A01 T01580002  RH  035%=      5-min Rain = 0
KPG1 061158Z 36014KT 16/00 A3023 RMK A01 T01580002  RH  035%=      5-min Rain = 0
KPG1 061159Z 36015KT 16/00 A3023 RMK A01 T01570002  RH  035%=      5-min Rain = 0
KPG1 061200Z 00012KT 16/00 A3023 RMK A01 T01570002  RH  035%=      5-min Rain = 0
KPG1 061201Z 36013KT 16/00 A3023 RMK A01 T01570002  RH  035%=      5-min Rain = 0
KPG1 061202Z 36014KT 16/00 A3023 RMK A01 T01570001  RH  034%=      5-min Rain = 0
KPG1 061203Z 00014G19KT 16/00 A3023 RMK A01 T015700-0  RH  034%=      5-min Rain = 0
KPG1 061204Z 36015KT 16/00 A3024 RMK A01 T015700-0  RH  034%=      5-min Rain = 0
KPG1 061205Z 36015KT 16/00 A3024 RMK A01 T01570000  RH  034%=      5-min Rain = 0
KPG1 061206Z 35013KT 16/00 A3024 RMK A01 T01570000  RH  034%=      5-min Rain = 0
KPG1 061207Z 35015KT 16/00 A3023 RMK A01 T01570000  RH  034%=      5-min Rain = 0
KPG1 061208Z 36016KT 16/00 A3023 RMK A01 T01570000  RH  034%=      5-min Rain = 0
KPG1 061209Z 35015KT 16/00 A3024 RMK A01 T01570000  RH  034%=      5-min Rain = 0
KPG1 061210Z 35016KT 16/M00 A3023 RMK A01 T01571001  RH  034%=      5-min Rain = 0
KPG1 061211Z 35016G21KT 16/M00 A3023 RMK A01 T01571002  RH  034%=      5-min Rain = 0
KPG1 061212Z 35017KT 16/M00 A3023 RMK A01 T01571003  RH  034%=      5-min Rain = 0
KPG1 061213Z 34017KT 16/M00 A3024 RMK A01 T01581003  RH  033%=      5-min Rain = 0
KPG1 061214Z 35017KT 16/M00 A3024 RMK A01 T01581004  RH  033%=      5-min Rain = 0
KPG1 061215Z 35017KT 16/M00 A3024 RMK A01 T01581003  RH  033%=      5-min Rain = 0
KPG1 061216Z 35018KT 16/M00 A3024 RMK A01 T01571004  RH  033%=      5-min Rain = 0
KPG1 061217Z 35019KT 16/M01 A3024 RMK A01 T01571005  RH  033%=      5-min Rain = 0
KPG1 061218Z 35018KT 16/M01 A3024 RMK A01 T01581005  RH  033%=      5-min Rain = 0
KPG1 061219Z 35016KT 16/M01 A3024 RMK A01 T01581005  RH  033%=      5-min Rain = 0
KPG1 061220Z 35018KT 16/M01 A3024 RMK A01 T01581006  RH  033%=      5-min Rain = 0
KPG1 061221Z 35018KT 16/M01 A3024 RMK A01 T01591007  RH  032%=      5-min Rain = 0
KPG1 061222Z 35017KT 16/M01 A3024 RMK A01 T01591007  RH  032%=      5-min Rain = 0
KPG1 061223Z 36017KT 16/M01 A3024 RMK A01 T01591007  RH  032%=      5-min Rain = 0
KPG1 061224Z 35016KT 16/M01 A3024 RMK A01 T01591006  RH  032%=      5-min Rain = 0
KPG1 061225Z 00014KT 16/M01 A3024 RMK A01 T01581006  RH  033%=      5-min Rain = 0
KPG1 061226Z 01012KT 16/M01 A3025 RMK A01 T01581007  RH  032%=      5-min Rain = 0
KPG1 061227Z 00011KT 16/M01 A3025 RMK A01 T01581007  RH  032%=      5-min Rain = 0
KPG1 061228Z 00010KT 16/M01 A3025 RMK A01 T01571006  RH  033%=      5-min Rain = 0
KPG1 061229Z 00011KT 16/M01 A3025 RMK A01 T01561006  RH  033%=      5-min Rain = 0
KPG1 061230Z 01011KT 16/M01 A3025 RMK A01 T01551005  RH  033%=      5-min Rain = 0
KPG1 061231Z 01013KT 15/M01 A3025 RMK A01 T01541005  RH  034%=      5-min Rain = 0
KPG1 061232Z 02013KT 16/M01 A3025 RMK A01 T01551005  RH  034%=      5-min Rain = 0
KPG1 061233Z 02011KT 16/M00 A3025 RMK A01 T01551004  RH  034%=      5-min Rain = 0
KPG1 061234Z 02011KT 16/M00 A3025 RMK A01 T01551004  RH  034%=      5-min Rain = 0
KPG1 061235Z 02009KT 16/M00 A3025 RMK A01 T01551004  RH  034%=      5-min Rain = 0
KPG1 061236Z 05011KT 15/M00 A3025 RMK A01 T01531002  RH  035%=      5-min Rain = 0
KPG1 061237Z 04010KT 15/00 A3025 RMK A01 T014900-0  RH  036%=      5-min Rain = 0
KPG1 061238Z 05011KT 15/00 A3025 RMK A01 T01460000  RH  037%=      5-min Rain = 0
KPG1 061239Z 05013KT 15/00 A3025 RMK A01 T01450001  RH  037%=      5-min Rain = 0
KPG1 061240Z 05014KT 14/00 A3025 RMK A01 T01440001  RH  038%=      5-min Rain = 0
KPG1 061241Z 03011KT 14/00 A3025 RMK A01 T01440001  RH  038%=      5-min Rain = 0
KPG1 061242Z 02012KT 14/00 A3025 RMK A01 T01440002  RH  038%=      5-min Rain = 0
KPG1 061243Z 02011KT 14/00 A3025 RMK A01 T01420003  RH  039%=      5-min Rain = 0
KPG1 061244Z 01011KT 14/00 A3025 RMK A01 T01410003  RH  039%=      5-min Rain = 0
KPG1 061245Z 01012KT 14/00 A3025 RMK A01 T01420003  RH  039%=      5-min Rain = 0
KPG1 061246Z 02011KT 14/00 A3025 RMK A01 T01430003  RH  038%=      5-min Rain = 0
KPG1 061247Z 02010KT 14/00 A3025 RMK A01 T01440003  RH  038%=      5-min Rain = 0
KPG1 061248Z 01009KT 14/00 A3025 RMK A01 T01440003  RH  038%=      5-min Rain = 0
KPG1 061249Z 03008KT 14/00 A3025 RMK A01 T01440003  RH  038%=      5-min Rain = 0
KPG1 061250Z 02009KT 14/00 A3026 RMK A01 T01430003  RH  038%=      5-min Rain = 0
KPG1 061251Z 04010KT 14/00 A3026 RMK A01 T01420004  RH  039%=      5-min Rain = 0
KPG1 061252Z 04009KT 14/00 A3026 RMK A01 T01400004  RH  039%=      5-min Rain = 0
KPG1 061253Z 04008KT 14/00 A3026 RMK A01 T01390004  RH  040%=      5-min Rain = 0
KPG1 061254Z 04009KT 14/00 A3026 RMK A01 T01370004  RH  040%=      5-min Rain = 0
KPG1 061255Z 05011KT 14/00 A3026 RMK A01 T01360004  RH  041%=      5-min Rain = 0
KPG1 061256Z 04010KT 14/01 A3026 RMK A01 T01360005  RH  041%=      5-min Rain = 0
KPG1 061257Z 03010KT 14/01 A3026 RMK A01 T01370005  RH  041%=      5-min Rain = 0
KPG1 061258Z 03010KT 14/01 A3026 RMK A01 T01380006  RH  040%=      5-min Rain = 0
KPG1 061259Z 02010KT 14/01 A3026 RMK A01 T01380006  RH  040%=      5-min Rain = 0
KPG1 061300Z 02011KT 14/01 A3026 RMK A01 T01380006  RH  040%=      5-min Rain = 0
KPG1 061301Z 03011KT 14/01 A3026 RMK A01 T01380005  RH  040%=      5-min Rain = 0
KPG1 061302Z 03009KT 14/01 A3026 RMK A01 T01390005  RH  040%=      5-min Rain = 0
KPG1 061303Z 03009KT 14/01 A3026 RMK A01 T01380005  RH  040%=      5-min Rain = 0
KPG1 061304Z 05010KT 14/01 A3027 RMK A01 T01360005  RH  041%=      5-min Rain = 0
KPG1 061305Z 04008KT 14/01 A3027 RMK A01 T01350006  RH  041%=      5-min Rain = 0
KPG1 061306Z 04008KT 13/01 A3027 RMK A01 T01340006  RH  041%=      5-min Rain = 0
KPG1 061307Z 05008KT 13/01 A3027 RMK A01 T01340006  RH  042%=      5-min Rain = 0
KPG1 061308Z 04008KT 13/01 A3027 RMK A01 T01330006  RH  042%=      5-min Rain = 0
KPG1 061309Z 04010KT 13/01 A3027 RMK A01 T01330006  RH  042%=      5-min Rain = 0
KPG1 061310Z 04011KT 13/01 A3027 RMK A01 T01340006  RH  041%=      5-min Rain = 0
KPG1 061311Z 04010KT 14/01 A3027 RMK A01 T01360006  RH  041%=      5-min Rain = 0
KPG1 061312Z 03009KT 14/01 A3027 RMK A01 T01370006  RH  041%=      5-min Rain = 0
KPG1 061313Z 04009KT 14/01 A3027 RMK A01 T01370007  RH  041%=      5-min Rain = 0
KPG1 061314Z 04009KT 14/01 A3027 RMK A01 T01350006  RH  041%=      5-min Rain = 0
KPG1 061315Z 04010KT 13/01 A3028 RMK A01 T01340006  RH  041%=      5-min Rain = 0
KPG1 061316Z 04012KT 13/01 A3028 RMK A01 T01340006  RH  041%=      5-min Rain = 0
KPG1 061317Z 04010KT 14/01 A3028 RMK A01 T01350006  RH  041%=      5-min Rain = 0
KPG1 061318Z 05009KT 14/01 A3028 RMK A01 T01350006  RH  041%=      5-min Rain = 0
KPG1 061319Z 05010KT 14/01 A3028 RMK A01 T01350006  RH  041%=      5-min Rain = 0
KPG1 061320Z 04011KT 14/01 A3028 RMK A01 T01350006  RH  041%=      5-min Rain = 0
KPG1 061321Z 05010KT 14/01 A3028 RMK A01 T01350006  RH  041%=      5-min Rain = 0
KPG1 061322Z 05008KT 13/01 A3028 RMK A01 T01340006  RH  041%=      5-min Rain = 0
KPG1 061323Z 04009KT 13/01 A3028 RMK A01 T01320005  RH  042%=      5-min Rain = 0
KPG1 061324Z 04010KT 13/01 A3028 RMK A01 T01320006  RH  042%=      5-min Rain = 0
KPG1 061325Z 03009KT 13/01 A3028 RMK A01 T01320006  RH  042%=      5-min Rain = 0
KPG1 061326Z 04009KT 13/01 A3028 RMK A01 T01320006  RH  042%=      5-min Rain = 0
KPG1 061327Z 04011KT 13/01 A3029 RMK A01 T01310007  RH  042%=      5-min Rain = 0
KPG1 061328Z 04009KT 13/01 A3029 RMK A01 T01310006  RH  042%=      5-min Rain = 0
KPG1 061329Z 03008KT 13/01 A3029 RMK A01 T01320006  RH  042%=      5-min Rain = 0
KPG1 061330Z 02009KT 13/01 A3029 RMK A01 T01290007  RH  043%=      5-min Rain = 0
KPG1 061331Z 04009KT 13/01 A3029 RMK A01 T01260007  RH  044%=      5-min Rain = 0
KPG1 061332Z 01009KT 12/01 A3029 RMK A01 T01240008  RH  045%=      5-min Rain = 0
KPG1 061333Z 02009KT 12/01 A3029 RMK A01 T01220010  RH  046%=      5-min Rain = 0
KPG1 061334Z 02009KT 12/01 A3029 RMK A01 T01210010  RH  047%=      5-min Rain = 0
KPG1 061335Z 03010KT 12/01 A3029 RMK A01 T01190011  RH  047%=      5-min Rain = 0
KPG1 061336Z 03010KT 12/01 A3029 RMK A01 T01180011  RH  048%=      5-min Rain = 0
KPG1 061337Z 02010KT 12/01 A3029 RMK A01 T01160012  RH  049%=      5-min Rain = 0
KPG1 061338Z 03009KT 11/01 A3029 RMK A01 T01140012  RH  050%=      5-min Rain = 0
KPG1 061339Z 02008KT 11/01 A3029 RMK A01 T01130012  RH  050%=      5-min Rain = 0
KPG1 061340Z 04009KT 11/01 A3029 RMK A01 T01110012  RH  050%=      5-min Rain = 0
KPG1 061341Z 05009KT 11/01 A3029 RMK A01 T01110012  RH  051%=      5-min Rain = 0
KPG1 061342Z 05008KT 11/01 A3029 RMK A01 T01130012  RH  050%=      5-min Rain = 0
KPG1 061343Z 05009KT 11/01 A3029 RMK A01 T01140011  RH  049%=      5-min Rain = 0
KPG1 061344Z 04009KT 12/01 A3029 RMK A01 T01150011  RH  049%=      5-min Rain = 0
KPG1 061345Z 03009KT 12/01 A3029 RMK A01 T01160010  RH  048%=      5-min Rain = 0
KPG1 061346Z 02009KT 12/01 A3029 RMK A01 T01160011  RH  049%=      5-min Rain = 0
KPG1 061347Z 02009KT 11/01 A3029 RMK A01 T01120011  RH  050%=      5-min Rain = 0
KPG1 061348Z 02009KT 11/01 A3029 RMK A01 T01100011  RH  050%=      5-min Rain = 0
KPG1 061349Z 02010KT 11/01 A303 RMK A01 T01090011  RH  051%=      5-min Rain = 0
KPG1 061350Z 03011KT 11/01 A303 RMK A01 T01090011  RH  051%=      5-min Rain = 0
KPG1 061351Z 02011KT 11/01 A303 RMK A01 T01090012  RH  051%=      5-min Rain = 0
KPG1 061352Z 02011KT 11/01 A303 RMK A01 T01080012  RH  052%=      5-min Rain = 0
KPG1 061353Z 03010KT 11/01 A303 RMK A01 T01060012  RH  052%=      5-min Rain = 0
KPG1 061354Z 03011KT 11/01 A303 RMK A01 T01050012  RH  053%=      5-min Rain = 0
KPG1 061355Z 03009KT 11/01 A303 RMK A01 T01050013  RH  053%=      5-min Rain = 0
KPG1 061356Z 03010KT 11/01 A303 RMK A01 T01050012  RH  053%=      5-min Rain = 0
KPG1 061357Z 01012KT 11/01 A303 RMK A01 T01050012  RH  052%=      5-min Rain = 0
KPG1 061358Z 02012KT 11/01 A303 RMK A01 T01080010  RH  051%=      5-min Rain = 0
KPG1 061359Z 02010KT 11/01 A303 RMK A01 T01110011  RH  050%=      5-min Rain = 0
KPG1 061400Z 02009KT 11/01 A303 RMK A01 T01090011  RH  050%=      5-min Rain = 0
KPG1 061401Z 02010KT 11/01 A303 RMK A01 T01080010  RH  051%=      5-min Rain = 0
KPG1 061402Z 01012KT 11/01 A303 RMK A01 T01110008  RH  049%=      5-min Rain = 0
KPG1 061403Z 01012KT 12/01 A303 RMK A01 T01170007  RH  047%=      5-min Rain = 0
KPG1 061404Z 01011KT 12/01 A303 RMK A01 T01220006  RH  045%=      5-min Rain = 0
KPG1 061405Z 01012KT 12/00 A303 RMK A01 T01240004  RH  044%=      5-min Rain = 0
KPG1 061406Z 01012KT 13/00 A303 RMK A01 T01270004  RH  043%=      5-min Rain = 0
KPG1 061407Z 01013KT 13/00 A303 RMK A01 T01280003  RH  042%=      5-min Rain = 0
KPG1 061408Z 01012KT 13/00 A303 RMK A01 T01290003  RH  042%=      5-min Rain = 0
KPG1 061409Z 01012KT 13/00 A303 RMK A01 T01290002  RH  042%=      5-min Rain = 0
KPG1 061410Z 02011KT 13/00 A303 RMK A01 T01290002  RH  042%=      5-min Rain = 0
KPG1 061411Z 01010KT 13/00 A303 RMK A01 T01290001  RH  041%=      5-min Rain = 0
KPG1 061412Z 01011KT 13/00 A303 RMK A01 T01290001  RH  041%=      5-min Rain = 0
KPG1 061413Z 01011KT 13/00 A303 RMK A01 T01300001  RH  041%=      5-min Rain = 0
KPG1 061414Z 01011KT 13/00 A303 RMK A01 T01310000  RH  041%=      5-min Rain = 0
KPG1 061415Z 02011KT 13/00 A3031 RMK A01 T01320000  RH  040%=      5-min Rain = 0
KPG1 061416Z 02011KT 13/00 A3031 RMK A01 T01320000  RH  040%=      5-min Rain = 0
KPG1 061417Z 02013KT 13/00 A3031 RMK A01 T01330000  RH  040%=      5-min Rain = 0
KPG1 061418Z 01011KT 13/00 A3031 RMK A01 T013300-0  RH  040%=      5-min Rain = 0
KPG1 061419Z 02014KT 13/M00 A3031 RMK A01 T01341001  RH  040%=      5-min Rain = 0
KPG1 061420Z 02013KT 14/M00 A3031 RMK A01 T01351001  RH  039%=      5-min Rain = 0
KPG1 061421Z 02014KT 14/M00 A3031 RMK A01 T01351001  RH  039%=      5-min Rain = 0
KPG1 061422Z 02014KT 14/M00 A3031 RMK A01 T01351001  RH  039%=      5-min Rain = 0
KPG1 061423Z 02015KT 14/M00 A3031 RMK A01 T01351002  RH  039%=      5-min Rain = 0
KPG1 061424Z 02013KT 14/M00 A3031 RMK A01 T01361001  RH  039%=      5-min Rain = 0
KPG1 061425Z 02014KT 14/M00 A3031 RMK A01 T01361001  RH  039%=      5-min Rain = 0
KPG1 061426Z 02011KT 14/M00 A3031 RMK A01 T01361001  RH  039%=      5-min Rain = 0
KPG1 061427Z 02013KT 14/M00 A3031 RMK A01 T01351001  RH  039%=      5-min Rain = 0
KPG1 061428Z 02014KT 13/M00 A3031 RMK A01 T01341001  RH  040%=      5-min Rain = 0
KPG1 061429Z 01014KT 14/M00 A3031 RMK A01 T01351001  RH  039%=      5-min Rain = 0
KPG1 061430Z 01013KT 14/M00 A3031 RMK A01 T01351001  RH  039%=      5-min Rain = 0
KPG1 061431Z 02014KT 14/M00 A3031 RMK A01 T01361002  RH  039%=      5-min Rain = 0
KPG1 061432Z 01015KT 14/M00 A3031 RMK A01 T01371002  RH  039%=      5-min Rain = 0
KPG1 061433Z 02015KT 14/M00 A3031 RMK A01 T01361002  RH  038%=      5-min Rain = 0
KPG1 061434Z 02014KT 14/M00 A3031 RMK A01 T01371002  RH  038%=      5-min Rain = 0
KPG1 061435Z 02015KT 14/M00 A3031 RMK A01 T01371002  RH  038%=      5-min Rain = 0
KPG1 061436Z 02014KT 14/M00 A3031 RMK A01 T01371002  RH  038%=      5-min Rain = 0
KPG1 061437Z 02014KT 14/M00 A3031 RMK A01 T01371002  RH  039%=      5-min Rain = 0
KPG1 061438Z 02013KT 14/M00 A3031 RMK A01 T01371001  RH  039%=      5-min Rain = 0
KPG1 061439Z 02014KT 14/M00 A3032 RMK A01 T01371001  RH  039%=      5-min Rain = 0
KPG1 061440Z 02015KT 14/M00 A3032 RMK A01 T01371002  RH  039%=      5-min Rain = 0
KPG1 061441Z 02013KT 14/M00 A3032 RMK A01 T01371001  RH  039%=      5-min Rain = 0
KPG1 061442Z 03012KT 14/M00 A3032 RMK A01 T01371001  RH  039%=      5-min Rain = 0
KPG1 061443Z 03010KT 14/00 A3032 RMK A01 T01370000  RH  039%=      5-min Rain = 0
KPG1 061444Z 03011KT 14/00 A3032 RMK A01 T01380001  RH  039%=      5-min Rain = 0
KPG1 061445Z 03012KT 14/00 A3032 RMK A01 T01380001  RH  039%=      5-min Rain = 0
KPG1 061446Z 03012KT 14/00 A3032 RMK A01 T01380001  RH  039%=      5-min Rain = 0
KPG1 061447Z 03012KT 14/00 A3032 RMK A01 T01380001  RH  039%=      5-min Rain = 0
KPG1 061448Z 04013KT 14/00 A3032 RMK A01 T01380001  RH  039%=      5-min Rain = 0
KPG1 061449Z 04015KT 14/00 A3032 RMK A01 T01380000  RH  039%=      5-min Rain = 0
KPG1 061450Z 04013KT 14/00 A3032 RMK A01 T013800-0  RH  039%=      5-min Rain = 0
KPG1 061451Z 03012KT 14/00 A3032 RMK A01 T013800-0  RH  039%=      5-min Rain = 0
KPG1 061452Z 03012KT 14/00 A3032 RMK A01 T013800-0  RH  039%=      5-min Rain = 0
KPG1 061453Z 03014KT 14/00 A3032 RMK A01 T013900-0  RH  039%=      5-min Rain = 0
KPG1 061454Z 04013KT 14/M00 A3032 RMK A01 T01381001  RH  038%=      5-min Rain = 0
KPG1 061455Z 04013KT 14/M00 A3032 RMK A01 T01381001  RH  038%=      5-min Rain = 0
KPG1 061456Z 03012KT 14/M00 A3032 RMK A01 T01391001  RH  038%=      5-min Rain = 0
KPG1 061457Z 03010KT 14/M00 A3032 RMK A01 T01391001  RH  038%=      5-min Rain = 0
KPG1 061458Z 03014KT 14/M00 A3032 RMK A01 T01411001  RH  038%=      5-min Rain = 0
KPG1 061459Z 03013KT 14/M00 A3032 RMK A01 T01411001  RH  038%=      5-min Rain = 0
KPG1 061500Z 03012G17KT 14/M00 A3032 RMK A01 T01411001  RH  038%=      5-min Rain = 0
KPG1 061501Z 04014KT 14/M00 A3032 RMK A01 T01421001  RH  038%=      5-min Rain = 0
KPG1 061502Z 04014KT 14/M00 A3033 RMK A01 T01421001  RH  038%=      5-min Rain = 0
KPG1 061503Z 03015KT 14/M00 A3033 RMK A01 T01421001  RH  038%=      5-min Rain = 0
KPG1 061504Z 03014KT 14/M00 A3033 RMK A01 T01421001  RH  038%=      5-min Rain = 0
KPG1 061505Z 04012KT 14/M00 A3033 RMK A01 T01421001  RH  038%=      5-min Rain = 0
KPG1 061506Z 04013KT 14/M00 A3033 RMK A01 T01421001  RH  037%=      5-min Rain = 0
KPG1 061507Z 04013KT 14/M00 A3033 RMK A01 T01431001  RH  037%=      5-min Rain = 0
KPG1 061508Z 04014KT 14/M00 A3033 RMK A01 T01431001  RH  037%=      5-min Rain = 0
KPG1 061509Z 04012KT 14/00 A3033 RMK A01 T014300-0  RH  037%=      5-min Rain = 0
KPG1 061510Z 04014KT 14/00 A3033 RMK A01 T014300-0  RH  037%=      5-min Rain = 0
KPG1 061511Z 04014KT 14/00 A3033 RMK A01 T014300-0  RH  037%=      5-min Rain = 0
KPG1 061512Z 03014KT 14/00 A3033 RMK A01 T014300-0  RH  037%=      5-min Rain = 0
KPG1 061513Z 04014KT 14/00 A3033 RMK A01 T014400-0  RH  037%=      5-min Rain = 0
KPG1 061514Z 04015KT 14/00 A3033 RMK A01 T01440000  RH  037%=      5-min Rain = 0
KPG1 061515Z 04016KT 14/00 A3033 RMK A01 T014400-0  RH  037%=      5-min Rain = 0
KPG1 061516Z 04015KT 14/00 A3033 RMK A01 T014300-0  RH  037%=      5-min Rain = 0
KPG1 061517Z 04017KT 14/00 A3033 RMK A01 T01430000  RH  038%=      5-min Rain = 0
KPG1 061518Z 04015KT 14/00 A3033 RMK A01 T014300-0  RH  037%=      5-min Rain = 0
KPG1 061519Z 04015KT 14/00 A3033 RMK A01 T014300-0  RH  038%=      5-min Rain = 0
KPG1 061520Z 03015KT 14/00 A3033 RMK A01 T014300-0  RH  038%=      5-min Rain = 0
KPG1 061521Z 03014KT 14/00 A3033 RMK A01 T014200-0  RH  038%=      5-min Rain = 0
KPG1 061522Z 04013KT 14/00 A3033 RMK A01 T01420000  RH  038%=      5-min Rain = 0
KPG1 061523Z 04013G18KT 14/00 A3033 RMK A01 T01430001  RH  038%=      5-min Rain = 0
KPG1 061524Z 03015KT 14/00 A3033 RMK A01 T01440000  RH  037%=      5-min Rain = 0
KPG1 061525Z 03016KT 14/00 A3033 RMK A01 T01440001  RH  037%=      5-min Rain = 0
KPG1 061526Z 03014KT 14/00 A3033 RMK A01 T01440000  RH  037%=      5-min Rain = 0
KPG1 061527Z 03014KT 14/00 A3033 RMK A01 T01440001  RH  038%=      5-min Rain = 0
KPG1 061528Z 03013KT 14/00 A3033 RMK A01 T01440001  RH  038%=      5-min Rain = 0
KPG1 061529Z 03014KT 14/00 A3033 RMK A01 T01440000  RH  037%=      5-min Rain = 0
KPG1 061530Z 03013KT 14/00 A3034 RMK A01 T01440000  RH  037%=      5-min Rain = 0
KPG1 061531Z 04014KT 14/00 A3034 RMK A01 T01440001  RH  038%=      5-min Rain = 0
KPG1 061532Z 04013KT 14/00 A3034 RMK A01 T01440001  RH  037%=      5-min Rain = 0
KPG1 061533Z 03013KT 15/00 A3034 RMK A01 T01450001  RH  037%=      5-min Rain = 0
KPG1 061534Z 04011KT 15/00 A3034 RMK A01 T01460001  RH  037%=      5-min Rain = 0
KPG1 061535Z 05010KT 15/00 A3034 RMK A01 T01480002  RH  037%=      5-min Rain = 0
KPG1 061536Z 03014KT 15/00 A3034 RMK A01 T01480001  RH  037%=      5-min Rain = 0
KPG1 061537Z 04013KT 15/00 A3034 RMK A01 T01470001  RH  037%=      5-min Rain = 0
KPG1 061538Z 04012KT 15/00 A3034 RMK A01 T01470000  RH  037%=      5-min Rain = 0
KPG1 061539Z 06011KT 15/00 A3034 RMK A01 T01460001  RH  037%=      5-min Rain = 0
KPG1 061540Z 04012KT 15/00 A3034 RMK A01 T01470002  RH  037%=      5-min Rain = 0
KPG1 061541Z 05013KT 15/00 A3034 RMK A01 T01480001  RH  037%=      5-min Rain = 0
KPG1 061542Z 04015KT 15/00 A3034 RMK A01 T01480001  RH  037%=      5-min Rain = 0
KPG1 061543Z 05013KT 15/00 A3034 RMK A01 T01480001  RH  037%=      5-min Rain = 0
KPG1 061544Z 04013KT 15/00 A3034 RMK A01 T01470001  RH  037%=      5-min Rain = 0
KPG1 061545Z 03014KT 15/00 A3034 RMK A01 T01480002  RH  037%=      5-min Rain = 0
KPG1 061546Z 04014KT 15/00 A3034 RMK A01 T01480001  RH  037%=      5-min Rain = 0
KPG1 061547Z 04013KT 15/00 A3034 RMK A01 T01480002  RH  037%=      5-min Rain = 0
KPG1 061548Z 04013KT 15/00 A3034 RMK A01 T01480002  RH  037%=      5-min Rain = 0
KPG1 061549Z 04012KT 15/00 A3035 RMK A01 T01480002  RH  037%=      5-min Rain = 0
KPG1 061550Z 04011KT 15/00 A3035 RMK A01 T01480002  RH  037%=      5-min Rain = 0
KPG1 061551Z 05011KT 15/00 A3035 RMK A01 T01490002  RH  037%=      5-min Rain = 0
KPG1 061552Z 05010KT 15/00 A3035 RMK A01 T01510003  RH  037%=      5-min Rain = 0
KPG1 061553Z 04010KT 15/00 A3034 RMK A01 T01520004  RH  036%=      5-min Rain = 0
KPG1 061554Z 05010KT 15/00 A3034 RMK A01 T01540004  RH  036%=      5-min Rain = 0
KPG1 061555Z 06010KT 16/00 A3035 RMK A01 T01550004  RH  036%=      5-min Rain = 0
KPG1 061556Z 06011KT 16/00 A3035 RMK A01 T01550003  RH  035%=      5-min Rain = 0
KPG1 061557Z 05011KT 15/00 A3035 RMK A01 T01540003  RH  036%=      5-min Rain = 0
KPG1 061558Z 04012KT 15/00 A3035 RMK A01 T01540003  RH  036%=      5-min Rain = 0
KPG1 061559Z 05010KT 15/00 A3035 RMK A01 T01540003  RH  036%=      5-min Rain = 0
KPG1 061600Z 04012KT 16/00 A3035 RMK A01 T01550004  RH  036%=      5-min Rain = 0
KPG1 061601Z 04011KT 16/00 A3035 RMK A01 T01560004  RH  035%=      5-min Rain = 0
KPG1 061602Z 04013KT 16/00 A3035 RMK A01 T01560004  RH  035%=      5-min Rain = 0
KPG1 061603Z 04012KT 16/00 A3035 RMK A01 T01560003  RH  035%=      5-min Rain = 0
KPG1 061604Z 04012KT 15/00 A3035 RMK A01 T01540003  RH  036%=      5-min Rain = 0
KPG1 061605Z 04010G15KT 16/00 A3035 RMK A01 T01550004  RH  036%=      5-min Rain = 0
KPG1 061606Z 04011KT 16/01 A3035 RMK A01 T01570005  RH  035%=      5-min Rain = 0
KPG1 061607Z 05009KT 16/01 A3035 RMK A01 T01580005  RH  035%=      5-min Rain = 0
KPG1 061608Z 03011KT 16/01 A3034 RMK A01 T01590005  RH  035%=      5-min Rain = 0
KPG1 061609Z 03013KT 16/00 A3034 RMK A01 T01580004  RH  035%=      5-min Rain = 0
KPG1 061610Z 04011KT 16/00 A3034 RMK A01 T01580004  RH  035%=      5-min Rain = 0
KPG1 061611Z 03012KT 16/01 A3034 RMK A01 T01580005  RH  035%=      5-min Rain = 0
KPG1 061612Z 03011KT 16/01 A3034 RMK A01 T01590005  RH  035%=      5-min Rain = 0
KPG1 061613Z 04009KT 16/01 A3034 RMK A01 T01590005  RH  035%=      5-min Rain = 0
KPG1 061614Z 03011KT 16/01 A3034 RMK A01 T01600006  RH  035%=      5-min Rain = 0
KPG1 061615Z 03013KT 16/01 A3034 RMK A01 T01610005  RH  035%=      5-min Rain = 0
KPG1 061616Z 04014KT 16/01 A3034 RMK A01 T01610005  RH  035%=      5-min Rain = 0
KPG1 061617Z 04014KT 16/01 A3034 RMK A01 T01610005  RH  034%=      5-min Rain = 0
KPG1 061618Z 03015KT 16/00 A3034 RMK A01 T01610004  RH  034%=      5-min Rain = 0
KPG1 061619Z 04013KT 16/00 A3034 RMK A01 T01620004  RH  034%=      5-min Rain = 0
KPG1 061620Z 06012KT 16/01 A3034 RMK A01 T01630005  RH  034%=      5-min Rain = 0
KPG1 061621Z 05011KT 17/01 A3034 RMK A01 T01650006  RH  034%=      5-min Rain = 0
KPG1 061622Z 06012KT 17/01 A3034 RMK A01 T01660005  RH  034%=      5-min Rain = 0
KPG1 061623Z 04010KT 17/01 A3034 RMK A01 T01650005  RH  034%=      5-min Rain = 0
KPG1 061624Z 04013KT 17/01 A3034 RMK A01 T01660005  RH  034%=      5-min Rain = 0
KPG1 061625Z 05013KT 17/01 A3034 RMK A01 T01680006  RH  033%=      5-min Rain = 0
KPG1 061626Z 04012KT 17/01 A3034 RMK A01 T01670005  RH  033%=      5-min Rain = 0
KPG1 061627Z 04013G18KT 17/01 A3034 RMK A01 T01670005  RH  033%=      5-min Rain = 0
KPG1 061628Z 05014KT 17/00 A3034 RMK A01 T01650004  RH  033%=      5-min Rain = 0
KPG1 061629Z 06012KT 16/00 A3034 RMK A01 T01640004  RH  034%=      5-min Rain = 0
KPG1 061630Z 06013G18KT 17/01 A3034 RMK A01 T01650005  RH  034%=      5-min Rain = 0
KPG1 061631Z 06014KT 17/01 A3034 RMK A01 T01670005  RH  033%=      5-min Rain = 0
KPG1 061632Z 07013KT 17/01 A3034 RMK A01 T01660005  RH  033%=      5-min Rain = 0
KPG1 061633Z 06012KT 17/01 A3035 RMK A01 T01670006  RH  034%=      5-min Rain = 0
KPG1 061634Z 06012KT 17/01 A3035 RMK A01 T01670005  RH  033%=      5-min Rain = 0
KPG1 061635Z 06014KT 17/01 A3035 RMK A01 T01680006  RH  033%=      5-min Rain = 0
KPG1 061636Z 06014KT 17/01 A3035 RMK A01 T01680005  RH  033%=      5-min Rain = 0
KPG1 061637Z 06014KT 17/01 A3034 RMK A01 T01670005  RH  033%=      5-min Rain = 0
KPG1 061638Z 05016KT 17/01 A3034 RMK A01 T01670005  RH  033%=      5-min Rain = 0
KPG1 061639Z 06016KT 17/01 A3034 RMK A01 T01670005  RH  033%=      5-min Rain = 0
KPG1 061640Z 06017KT 17/01 A3034 RMK A01 T01670006  RH  033%=      5-min Rain = 0
KPG1 061641Z 06012KT 17/01 A3034 RMK A01 T01670005  RH  033%=      5-min Rain = 0
KPG1 061642Z 05012KT 17/01 A3034 RMK A01 T01680006  RH  034%=      5-min Rain = 0
KPG1 061643Z 07014KT 17/01 A3034 RMK A01 T01700007  RH  033%=      5-min Rain = 0
KPG1 061644Z 07014G19KT 17/01 A3034 RMK A01 T01700006  RH  033%=      5-min Rain = 0
KPG1 061645Z 05011G16KT 17/01 A3034 RMK A01 T01680005  RH  033%=      5-min Rain = 0
KPG1 061646Z 06012KT 17/01 A3035 RMK A01 T01680005  RH  033%=      5-min Rain = 0
KPG1 061647Z 05009KT 17/00 A3035 RMK A01 T01670004  RH  033%=      5-min Rain = 0
KPG1 061648Z 05009KT 17/01 A3035 RMK A01 T01680006  RH  033%=      5-min Rain = 0
KPG1 061649Z 07011KT 17/01 A3035 RMK A01 T01690007  RH  033%=      5-min Rain = 0
KPG1 061650Z 04012KT 17/01 A3035 RMK A01 T01720007  RH  033%=      5-min Rain = 0
KPG1 061651Z 05013KT 17/01 A3035 RMK A01 T01730007  RH  033%=      5-min Rain = 0
KPG1 061652Z 05012KT 17/01 A3035 RMK A01 T01710006  RH  033%=      5-min Rain = 0
KPG1 061653Z 06012KT 17/01 A3035 RMK A01 T01690005  RH  033%=      5-min Rain = 0
KPG1 061654Z 06013G18KT 17/01 A3035 RMK A01 T01690007  RH  033%=      5-min Rain = 0
KPG1 061655Z 07013KT 17/01 A3035 RMK A01 T01700006  RH  033%=      5-min Rain = 0
KPG1 061656Z 06013G18KT 17/01 A3035 RMK A01 T01710007  RH  033%=      5-min Rain = 0
KPG1 061657Z 07015KT 17/01 A3035 RMK A01 T01700006  RH  033%=      5-min Rain = 0
KPG1 061658Z 05013G18KT 17/01 A3035 RMK A01 T01700006  RH  033%=      5-min Rain = 0
KPG1 061659Z 06014KT 17/01 A3035 RMK A01 T01700006  RH  033%=      5-min Rain = 0
KPG1 061700Z 06013KT 17/01 A3035 RMK A01 T01700005  RH  033%=      5-min Rain = 0
KPG1 061701Z 04010KT 17/01 A3035 RMK A01 T01700006  RH  033%=      5-min Rain = 0
KPG1 061702Z 04013KT 17/01 A3035 RMK A01 T01710006  RH  033%=      5-min Rain = 0
KPG1 061703Z 05012KT 17/01 A3035 RMK A01 T01710006  RH  033%=      5-min Rain = 0
KPG1 061704Z 05008KT 17/01 A3035 RMK A01 T01710006  RH  033%=      5-min Rain = 0
KPG1 061705Z 05011KT 17/01 A3035 RMK A01 T01730007  RH  033%=      5-min Rain = 0
KPG1 061706Z 06013KT 18/01 A3035 RMK A01 T01750007  RH  032%=      5-min Rain = 0
KPG1 061707Z 06013KT 17/01 A3035 RMK A01 T01730005  RH  032%=      5-min Rain = 0
KPG1 061708Z 05013KT 17/01 A3035 RMK A01 T01720005  RH  032%=      5-min Rain = 0
KPG1 061709Z 05013KT 17/01 A3035 RMK A01 T01720005  RH  032%=      5-min Rain = 0
KPG1 061710Z 06016KT 17/01 A3035 RMK A01 T01730006  RH  032%=      5-min Rain = 0
KPG1 061711Z 06012KT 17/01 A3035 RMK A01 T01730006  RH  032%=      5-min Rain = 0
KPG1 061712Z 06011KT 17/01 A3035 RMK A01 T01730005  RH  032%=      5-min Rain = 0
KPG1 061713Z 06014G19KT 17/01 A3035 RMK A01 T01720006  RH  032%=      5-min Rain = 0
KPG1 061714Z 05014KT 17/01 A3035 RMK A01 T01730006  RH  032%=      5-min Rain = 0
KPG1 061715Z 06013KT 17/01 A3035 RMK A01 T01740006  RH  032%=      5-min Rain = 0
KPG1 061716Z 06014KT 18/01 A3035 RMK A01 T01750006  RH  032%=      5-min Rain = 0
KPG1 061717Z 08014KT 17/01 A3035 RMK A01 T01740006  RH  032%=      5-min Rain = 0
KPG1 061718Z 08012KT 17/01 A3035 RMK A01 T01730006  RH  032%=      5-min Rain = 0
KPG1 061719Z 07012KT 17/01 A3036 RMK A01 T01730006  RH  032%=      5-min Rain = 0
KPG1 061720Z 06011KT 17/01 A3036 RMK A01 T01740006  RH  032%=      5-min Rain = 0
KPG1 061721Z 05011KT 17/01 A3036 RMK A01 T01740006  RH  032%=      5-min Rain = 0
KPG1 061722Z 06015KT 17/01 A3035 RMK A01 T01730006  RH  032%=      5-min Rain = 0
KPG1 061723Z 06011KT 17/01 A3035 RMK A01 T01740006  RH  032%=      5-min Rain = 0
KPG1 061724Z 07015KT 18/01 A3035 RMK A01 T01760007  RH  032%=      5-min Rain = 0
KPG1 061725Z 07014KT 17/01 A3035 RMK A01 T01740005  RH  032%=      5-min Rain = 0
KPG1 061726Z 07014KT 17/01 A3035 RMK A01 T01720005  RH  032%=      5-min Rain = 0
KPG1 061727Z 07013KT 17/01 A3035 RMK A01 T01730006  RH  032%=      5-min Rain = 0
KPG1 061728Z 06011KT 17/01 A3035 RMK A01 T01740006  RH  032%=      5-min Rain = 0
KPG1 061729Z 07012KT 17/01 A3035 RMK A01 T01740006  RH  032%=      5-min Rain = 0
KPG1 061730Z 07012KT 17/01 A3035 RMK A01 T01730005  RH  032%=      5-min Rain = 0
KPG1 061731Z 05011KT 17/01 A3035 RMK A01 T01720005  RH  032%=      5-min Rain = 0
KPG1 061732Z 06011KT 17/01 A3035 RMK A01 T01730005  RH  032%=      5-min Rain = 0
KPG1 061733Z 06011KT 17/01 A3035 RMK A01 T01730005  RH  032%=      5-min Rain = 0
KPG1 061734Z 06014KT 17/01 A3035 RMK A01 T01740006  RH  032%=      5-min Rain = 0
KPG1 061735Z 06014KT 17/01 A3035 RMK A01 T01740005  RH  032%=      5-min Rain = 0
KPG1 061736Z 06015KT 17/01 A3035 RMK A01 T01730005  RH  032%=      5-min Rain = 0
KPG1 061737Z 07013KT 17/01 A3035 RMK A01 T01730005  RH  032%=      5-min Rain = 0
KPG1 061738Z 06012KT 17/01 A3035 RMK A01 T01720006  RH  032%=      5-min Rain = 0
KPG1 061739Z 06010KT 18/01 A3035 RMK A01 T01750007  RH  032%=      5-min Rain = 0
KPG1 061740Z 04012KT 18/01 A3035 RMK A01 T01780008  RH  032%=      5-min Rain = 0
KPG1 061741Z 03012KT 18/01 A3035 RMK A01 T01800007  RH  031%=      5-min Rain = 0
KPG1 061742Z 04013KT 18/01 A3035 RMK A01 T01800006  RH  031%=      5-min Rain = 0
KPG1 061743Z 04012KT 18/01 A3035 RMK A01 T01780005  RH  031%=      5-min Rain = 0
KPG1 061744Z 05013KT 18/01 A3035 RMK A01 T01760005  RH  032%=      5-min Rain = 0
KPG1 061745Z 05010KT 18/01 A3035 RMK A01 T01760006  RH  032%=      5-min Rain = 0
KPG1 061746Z 05011KT 18/01 A3035 RMK A01 T01770006  RH  032%=      5-min Rain = 0
KPG1 061747Z 04007G12KT 18/01 A3035 RMK A01 T01770006  RH  031%=      5-min Rain = 0
KPG1 061748Z 05010KT 18/01 A3034 RMK A01 T01780006  RH  031%=      5-min Rain = 0
KPG1 061749Z 04011KT 18/01 A3034 RMK A01 T01790006  RH  031%=      5-min Rain = 0
KPG1 061750Z 03012KT 18/01 A3034 RMK A01 T01790006  RH  031%=      5-min Rain = 0
KPG1 061751Z 03013KT 18/01 A3034 RMK A01 T01800005  RH  031%=      5-min Rain = 0
KPG1 061752Z 06013KT 18/01 A3034 RMK A01 T01790005  RH  031%=      5-min Rain = 0
KPG1 061753Z 06012KT 18/00 A3034 RMK A01 T01790004  RH  031%=      5-min Rain = 0
KPG1 061754Z 05008KT 18/00 A3034 RMK A01 T01780003  RH  031%=      5-min Rain = 0
KPG1 061755Z 04009G15KT 18/01 A3034 RMK A01 T01780005  RH  031%=      5-min Rain = 0
KPG1 061756Z 05008KT 18/00 A3034 RMK A01 T01770003  RH  031%=      5-min Rain = 0
KPG1 061757Z 06013KT 18/01 A3034 RMK A01 T01780005  RH  031%=      5-min Rain = 0
KPG1 061758Z 06018KT 18/01 A3034 RMK A01 T01790005  RH  031%=      5-min Rain = 0
KPG1 061759Z 06016KT 18/01 A3034 RMK A01 T01770005  RH  031%=      5-min Rain = 0
KPG1 061800Z 07013G19KT 18/01 A3034 RMK A01 T01770005  RH  031%=      5-min Rain = 0
KPG1 061801Z 07013G19KT 18/01 A3034 RMK A01 T01770005  RH  031%=      5-min Rain = 0
KPG1 061802Z 07011KT 18/00 A3034 RMK A01 T01750004  RH  032%=      5-min Rain = 0
KPG1 061803Z 05010KT 18/00 A3034 RMK A01 T01760004  RH  031%=      5-min Rain = 0
KPG1 061804Z 08011KT 18/01 A3034 RMK A01 T01780006  RH  031%=      5-min Rain = 0
KPG1 061805Z 06011KT 18/01 A3034 RMK A01 T01810006  RH  031%=      5-min Rain = 0
KPG1 061806Z 04011KT 18/01 A3034 RMK A01 T01820007  RH  031%=      5-min Rain = 0
KPG1 061807Z 05009KT 19/01 A3034 RMK A01 T01850007  RH  030%=      5-min Rain = 0
KPG1 061808Z 04008KT 19/01 A3034 RMK A01 T01850006  RH  030%=      5-min Rain = 0
KPG1 061809Z 07009KT 19/01 A3034 RMK A01 T01850006  RH  030%=      5-min Rain = 0
KPG1 061810Z 06012KT 18/00 A3033 RMK A01 T01840004  RH  030%=      5-min Rain = 0
KPG1 061811Z 07012KT 18/01 A3033 RMK A01 T01830005  RH  030%=      5-min Rain = 0
KPG1 061812Z 07013KT 18/01 A3033 RMK A01 T01830005  RH  030%=      5-min Rain = 0
KPG1 061813Z 05010KT 18/00 A3033 RMK A01 T01820004  RH  030%=      5-min Rain = 0
KPG1 061814Z 03010KT 18/01 A3033 RMK A01 T01820006  RH  030%=      5-min Rain = 0
KPG1 061815Z 03005KT 19/01 A3033 RMK A01 T01850007  RH  030%=      5-min Rain = 0
KPG1 061816Z 04010G15KT 19/01 A3033 RMK A01 T01880007  RH  030%=      5-min Rain = 0
KPG1 061817Z 06011G16KT 19/01 A3033 RMK A01 T01890006  RH  029%=      5-min Rain = 0
KPG1 061818Z 07012KT 19/01 A3032 RMK A01 T01870005  RH  029%=      5-min Rain = 0
KPG1 061819Z 08011KT 18/00 A3032 RMK A01 T01830004  RH  030%=      5-min Rain = 0
KPG1 061820Z 05011KT 18/01 A3032 RMK A01 T01820005  RH  030%=      5-min Rain = 0
KPG1 061821Z 04011KT 18/01 A3032 RMK A01 T01830005  RH  030%=      5-min Rain = 0
KPG1 061822Z 07013KT 18/01 A3032 RMK A01 T01840005  RH  030%=      5-min Rain = 0
KPG1 061823Z 07010KT 18/00 A3032 RMK A01 T01820004  RH  030%=      5-min Rain = 0
KPG1 061824Z 07008KT 18/00 A3032 RMK A01 T01800004  RH  030%=      5-min Rain = 0
KPG1 061825Z 04013KT 18/01 A3032 RMK A01 T01810005  RH  031%=      5-min Rain = 0
KPG1 061826Z 04012KT 18/00 A3032 RMK A01 T01820004  RH  030%=      5-min Rain = 0
KPG1 061827Z 04012KT 18/01 A3032 RMK A01 T01820005  RH  030%=      5-min Rain = 0
KPG1 061828Z 04011KT 18/01 A3032 RMK A01 T01820005  RH  030%=      5-min Rain = 0
KPG1 061829Z 04010KT 18/01 A3032 RMK A01 T01840006  RH  030%=      5-min Rain = 0
KPG1 061830Z 07012KT 19/01 A3032 RMK A01 T01870006  RH  030%=      5-min Rain = 0
KPG1 061831Z 07013KT 19/00 A3032 RMK A01 T01850004  RH  030%=      5-min Rain = 0
KPG1 061832Z 07012KT 18/00 A3032 RMK A01 T01820004  RH  030%=      5-min Rain = 0
KPG1 061833Z 06012KT 18/01 A3032 RMK A01 T01820005  RH  030%=      5-min Rain = 0
KPG1 061834Z 08014KT 18/01 A3031 RMK A01 T01820005  RH  030%=      5-min Rain = 0
KPG1 061835Z 06010KT 18/00 A3031 RMK A01 T01800004  RH  030%=      5-min Rain = 0
KPG1 061836Z 04007KT 18/01 A3031 RMK A01 T01820006  RH  030%=      5-min Rain = 0
KPG1 061837Z 07010KT 19/01 A3031 RMK A01 T01850006  RH  030%=      5-min Rain = 0
KPG1 061838Z 07012KT 18/01 A3031 RMK A01 T01840005  RH  030%=      5-min Rain = 0
KPG1 061839Z 03011KT 18/01 A3031 RMK A01 T01840005  RH  030%=      5-min Rain = 0
KPG1 061840Z 05009KT 18/01 A3031 RMK A01 T01840005  RH  030%=      5-min Rain = 0
KPG1 061841Z 04009KT 19/01 A3031 RMK A01 T01850006  RH  030%=      5-min Rain = 0
KPG1 061842Z 05010KT 19/01 A3031 RMK A01 T01870005  RH  030%=      5-min Rain = 0
KPG1 061843Z 07011KT 19/01 A3031 RMK A01 T01870006  RH  029%=      5-min Rain = 0
KPG1 061844Z 07010KT 19/00 A3031 RMK A01 T01870004  RH  029%=      5-min Rain = 0
KPG1 061845Z 07011KT 18/00 A3031 RMK A01 T01840004  RH  030%=      5-min Rain = 0
KPG1 061846Z 08011KT 18/00 A3031 RMK A01 T01840004  RH  030%=      5-min Rain = 0
KPG1 061847Z 08010KT 18/00 A3031 RMK A01 T01840004  RH  030%=      5-min Rain = 0
KPG1 061848Z 05011KT 19/01 A3031 RMK A01 T01860005  RH  030%=      5-min Rain = 0
KPG1 061849Z 04012KT 19/01 A3031 RMK A01 T01870005  RH  029%=      5-min Rain = 0
KPG1 061850Z 03011KT 19/01 A3031 RMK A01 T01870005  RH  029%=      5-min Rain = 0
KPG1 061851Z 03011KT 19/01 A3031 RMK A01 T01880005  RH  029%=      5-min Rain = 0
KPG1 061852Z 06009KT 19/01 A3031 RMK A01 T01900005  RH  029%=      5-min Rain = 0
KPG1 061853Z 06008KT 19/01 A3031 RMK A01 T01910006  RH  029%=      5-min Rain = 0
KPG1 061854Z 03011KT 19/01 A303 RMK A01 T01920005  RH  029%=      5-min Rain = 0
KPG1 061855Z 03013KT 19/01 A303 RMK A01 T01920005  RH  029%=      5-min Rain = 0
KPG1 061856Z 03010KT 19/00 A303 RMK A01 T01890003  RH  029%=      5-min Rain = 0
KPG1 061857Z 03010KT 19/00 A303 RMK A01 T01870003  RH  029%=      5-min Rain = 0
KPG1 061858Z 03015KT 19/00 A303 RMK A01 T01850004  RH  029%=      5-min Rain = 0
KPG1 061859Z 03014KT 19/00 A303 RMK A01 T01850004  RH  029%=      5-min Rain = 0
KPG1 061900Z 03014KT 18/00 A303 RMK A01 T01840003  RH  030%=      5-min Rain = 0
KPG1 061901Z 04009KT 18/00 A303 RMK A01 T01820003  RH  030%=      5-min Rain = 0
KPG1 061902Z 03009KT 18/00 A303 RMK A01 T01810003  RH  030%=      5-min Rain = 0
KPG1 061903Z 04012KT 18/01 A303 RMK A01 T01830005  RH  030%=      5-min Rain = 0
KPG1 061904Z 04014KT 18/00 A303 RMK A01 T01840004  RH  030%=      5-min Rain = 0
KPG1 061905Z 05011KT 18/00 A303 RMK A01 T01820004  RH  030%=      5-min Rain = 0
KPG1 061906Z 05010KT 18/01 A303 RMK A01 T01840005  RH  030%=      5-min Rain = 0
KPG1 061907Z 05010KT 19/01 A303 RMK A01 T01860005  RH  030%=      5-min Rain = 0
KPG1 061908Z 05008KT 19/01 A303 RMK A01 T01870005  RH  029%=      5-min Rain = 0
KPG1 061909Z 07007KT 19/01 A303 RMK A01 T01900007  RH  029%=      5-min Rain = 0
KPG1 061910Z 05008KT 19/01 A3029 RMK A01 T01920006  RH  029%=      5-min Rain = 0
KPG1 061911Z 06012KT 19/01 A3029 RMK A01 T01930006  RH  029%=      5-min Rain = 0
KPG1 061912Z 07011KT 19/00 A3029 RMK A01 T01890003  RH  029%=      5-min Rain = 0
KPG1 061913Z 05009KT 19/00 A3029 RMK A01 T01880004  RH  029%=      5-min Rain = 0
KPG1 061914Z 06009KT 19/01 A3029 RMK A01 T01890005  RH  029%=      5-min Rain = 0
KPG1 061915Z 06008KT 19/00 A3029 RMK A01 T01880004  RH  029%=      5-min Rain = 0
KPG1 061916Z 05010KT 19/00 A3029 RMK A01 T01870004  RH  029%=      5-min Rain = 0
KPG1 061917Z 04009KT 19/01 A3029 RMK A01 T01890005  RH  029%=      5-min Rain = 0
KPG1 061918Z 03010KT 19/01 A3029 RMK A01 T01900005  RH  029%=      5-min Rain = 0
KPG1 061919Z 06010KT 19/01 A3029 RMK A01 T01910005  RH  029%=      5-min Rain = 0
KPG1 061920Z 05009G14KT 19/01 A3029 RMK A01 T01920005  RH  029%=      5-min Rain = 0
KPG1 061921Z 03010KT 19/01 A3029 RMK A01 T01920005  RH  029%=      5-min Rain = 0
KPG1 061922Z 03012KT 19/01 A3029 RMK A01 T01920005  RH  028%=      5-min Rain = 0
KPG1 061923Z 03013KT 19/01 A3029 RMK A01 T01920005  RH  029%=      5-min Rain = 0
KPG1 061924Z 03012KT 19/00 A3029 RMK A01 T01910004  RH  028%=      5-min Rain = 0
KPG1 061925Z 03013KT 19/00 A3029 RMK A01 T01900004  RH  029%=      5-min Rain = 0
KPG1 061926Z 02011G16KT 19/00 A3029 RMK A01 T01900004  RH  029%=      5-min Rain = 0
KPG1 061927Z 02013KT 19/01 A3029 RMK A01 T01900005  RH  029%=      5-min Rain = 0
KPG1 061928Z 04009KT 19/01 A3029 RMK A01 T01920006  RH  029%=      5-min Rain = 0
KPG1 061929Z 03014KT 19/01 A3028 RMK A01 T01940006  RH  028%=      5-min Rain = 0
KPG1 061930Z 03015KT 19/01 A3028 RMK A01 T01930005  RH  028%=      5-min Rain = 0
KPG1 061931Z 03016G22KT 19/00 A3028 RMK A01 T01910003  RH  028%=      5-min Rain = 0
KPG1 061932Z 03014G21KT 19/00 A3028 RMK A01 T01890003  RH  029%=      5-min Rain = 0
KPG1 061933Z 02013KT 19/00 A3028 RMK A01 T01860003  RH  029%=      5-min Rain = 0
KPG1 061934Z 03009KT 19/00 A3028 RMK A01 T01870003  RH  029%=      5-min Rain = 0
KPG1 061935Z 03013KT 19/00 A3028 RMK A01 T01870004  RH  029%=      5-min Rain = 0
KPG1 061936Z 02012KT 19/00 A3028 RMK A01 T01870003  RH  029%=      5-min Rain = 0
KPG1 061937Z 05010KT 19/00 A3028 RMK A01 T01880004  RH  029%=      5-min Rain = 0
KPG1 061938Z 07011KT 19/00 A3028 RMK A01 T01900004  RH  029%=      5-min Rain = 0
KPG1 061939Z 04011KT 19/01 A3028 RMK A01 T01910005  RH  029%=      5-min Rain = 0
KPG1 061940Z 07011KT 19/01 A3028 RMK A01 T01920005  RH  028%=      5-min Rain = 0
KPG1 061941Z 07013KT 19/00 A3028 RMK A01 T01910004  RH  028%=      5-min Rain = 0
KPG1 061942Z 07012KT 19/00 A3028 RMK A01 T01900004  RH  029%=      5-min Rain = 0
KPG1 061943Z 08009KT 19/00 A3028 RMK A01 T01880004  RH  029%=      5-min Rain = 0
KPG1 061944Z 08007KT 19/00 A3027 RMK A01 T01870004  RH  029%=      5-min Rain = 0
KPG1 061945Z 05011KT 19/01 A3027 RMK A01 T01880005  RH  029%=      5-min Rain = 0
KPG1 061946Z 03011KT 19/00 A3027 RMK A01 T01890004  RH  029%=      5-min Rain = 0
KPG1 061947Z 02010G16KT 19/01 A3027 RMK A01 T01890005  RH  029%=      5-min Rain = 0
KPG1 061948Z 03013KT 19/01 A3027 RMK A01 T01890005  RH  029%=      5-min Rain = 0
KPG1 061949Z 05010KT 19/01 A3027 RMK A01 T01910006  RH  029%=      5-min Rain = 0
KPG1 061950Z 07009KT 19/01 A3027 RMK A01 T01930006  RH  028%=      5-min Rain = 0
KPG1 061951Z 07010KT 20/01 A3027 RMK A01 T01950006  RH  028%=      5-min Rain = 0
KPG1 061952Z 06012KT 20/01 A3027 RMK A01 T01960005  RH  028%=      5-min Rain = 0
KPG1 061953Z 07017KT 20/01 A3027 RMK A01 T01950005  RH  028%=      5-min Rain = 0
KPG1 061954Z 06017KT 19/00 A3027 RMK A01 T01930004  RH  028%=      5-min Rain = 0
KPG1 061955Z 07013KT 19/00 A3027 RMK A01 T01910003  RH  028%=      5-min Rain = 0
KPG1 061956Z 07014KT 19/00 A3027 RMK A01 T01900004  RH  029%=      5-min Rain = 0
KPG1 061957Z 06013KT 19/00 A3027 RMK A01 T01900003  RH  028%=      5-min Rain = 0
KPG1 061958Z 07010KT 19/00 A3027 RMK A01 T01890003  RH  029%=      5-min Rain = 0
KPG1 061959Z 05010KT 19/00 A3026 RMK A01 T01880003  RH  029%=      5-min Rain = 0
KPG1 062000Z 03010KT 19/00 A3026 RMK A01 T01870003  RH  029%=      5-min Rain = 0
KPG1 062001Z 04010KT 19/00 A3026 RMK A01 T01860003  RH  029%=      5-min Rain = 0
KPG1 062002Z 04011KT 19/01 A3026 RMK A01 T01880005  RH  029%=      5-min Rain = 0
KPG1 062003Z 08011KT 19/01 A3026 RMK A01 T01900005  RH  029%=      5-min Rain = 0
KPG1 062004Z 07009KT 19/01 A3026 RMK A01 T01910005  RH  029%=      5-min Rain = 0
KPG1 062005Z 06009KT 19/00 A3026 RMK A01 T01910004  RH  029%=      5-min Rain = 0
KPG1 062006Z 05010KT 19/01 A3026 RMK A01 T01930006  RH  028%=      5-min Rain = 0
KPG1 062007Z 05010KT 19/00 A3026 RMK A01 T01930004  RH  028%=      5-min Rain = 0
KPG1 062008Z 08008KT 19/00 A3026 RMK A01 T01910004  RH  028%=      5-min Rain = 0
KPG1 062009Z 08010KT 19/00 A3026 RMK A01 T01900004  RH  028%=      5-min Rain = 0
KPG1 062010Z 06014KT 19/00 A3026 RMK A01 T01900004  RH  029%=      5-min Rain = 0
KPG1 062011Z 05010G16KT 19/00 A3026 RMK A01 T01900004  RH  028%=      5-min Rain = 0
KPG1 062012Z 04010KT 19/00 A3026 RMK A01 T01900004  RH  029%=      5-min Rain = 0
KPG1 062013Z 05008KT 20/01 A3026 RMK A01 T01950006  RH  028%=      5-min Rain = 0
KPG1 062014Z 04009KT 20/00 A3026 RMK A01 T01970004  RH  027%=      5-min Rain = 0
KPG1 062015Z 06008KT 20/00 A3026 RMK A01 T01960004  RH  028%=      5-min Rain = 0
KPG1 062016Z 04010KT 20/00 A3026 RMK A01 T01960004  RH  028%=      5-min Rain = 0
KPG1 062017Z 04010KT 20/01 A3026 RMK A01 T01970005  RH  028%=      5-min Rain = 0
KPG1 062018Z 05011KT 20/00 A3026 RMK A01 T01960004  RH  028%=      5-min Rain = 0
KPG1 062019Z 07010KT 20/01 A3026 RMK A01 T01960005  RH  028%=      5-min Rain = 0
KPG1 062020Z 07010KT 19/00 A3026 RMK A01 T01930003  RH  028%=      5-min Rain = 0
KPG1 062021Z 07011G16KT 19/00 A3026 RMK A01 T01920004  RH  028%=      5-min Rain = 0
KPG1 062022Z 08013KT 19/00 A3026 RMK A01 T01920004  RH  028%=      5-min Rain = 0
KPG1 062023Z 07013KT 19/00 A3026 RMK A01 T01920002  RH  028%=      5-min Rain = 0
KPG1 062024Z 07010KT 19/00 A3026 RMK A01 T01910002  RH  028%=      5-min Rain = 0
KPG1 062025Z 08010KT 19/00 A3025 RMK A01 T01910002  RH  028%=      5-min Rain = 0
KPG1 062026Z 06010KT 19/00 A3026 RMK A01 T01940004  RH  028%=      5-min Rain = 0
KPG1 062027Z 07010KT 19/00 A3026 RMK A01 T01940003  RH  028%=      5-min Rain = 0
KPG1 062028Z 05010KT 19/00 A3026 RMK A01 T01920003  RH  028%=      5-min Rain = 0
KPG1 062029Z 05009KT 19/00 A3026 RMK A01 T01900003  RH  028%=      5-min Rain = 0
KPG1 062030Z 05010KT 19/00 A3026 RMK A01 T01910003  RH  028%=      5-min Rain = 0
KPG1 062031Z 06012KT 19/00 A3025 RMK A01 T01920003  RH  028%=      5-min Rain = 0
KPG1 062032Z 07013KT 19/00 A3026 RMK A01 T01920002  RH  028%=      5-min Rain = 0
KPG1 062033Z 08013KT 19/00 A3025 RMK A01 T01910001  RH  028%=      5-min Rain = 0
KPG1 062034Z 07012KT 19/00 A3026 RMK A01 T01900001  RH  028%=      5-min Rain = 0
KPG1 062035Z 06014KT 19/00 A3026 RMK A01 T01900002  RH  028%=      5-min Rain = 0
KPG1 062036Z 06012KT 19/00 A3025 RMK A01 T01910002  RH  028%=      5-min Rain = 0
KPG1 062037Z 07014KT 19/00 A3025 RMK A01 T01910003  RH  028%=      5-min Rain = 0
KPG1 062038Z 06014KT 19/00 A3025 RMK A01 T01920002  RH  028%=      5-min Rain = 0
KPG1 062039Z 07015KT 19/00 A3025 RMK A01 T01910002  RH  028%=      5-min Rain = 0
KPG1 062040Z 06014KT 19/00 A3025 RMK A01 T01910002  RH  028%=      5-min Rain = 0
KPG1 062041Z 06013KT 19/00 A3025 RMK A01 T01900002  RH  028%=      5-min Rain = 0
KPG1 062042Z 06013KT 19/00 A3025 RMK A01 T01910003  RH  028%=      5-min Rain = 0
KPG1 062043Z 07012KT 19/00 A3025 RMK A01 T01920004  RH  028%=      5-min Rain = 0
KPG1 062044Z 07010KT 19/00 A3025 RMK A01 T01930004  RH  028%=      5-min Rain = 0
KPG1 062045Z 05009KT 19/00 A3025 RMK A01 T01940004  RH  028%=      5-min Rain = 0
KPG1 062046Z 05009KT 20/00 A3025 RMK A01 T01950004  RH  028%=      5-min Rain = 0
KPG1 062047Z 07016KT 19/00 A3025 RMK A01 T01940003  RH  028%=      5-min Rain = 0
KPG1 062048Z 05013KT 19/00 A3025 RMK A01 T01940003  RH  028%=      5-min Rain = 0
KPG1 062049Z 07014KT 20/00 A3025 RMK A01 T01950004  RH  028%=      5-min Rain = 0
KPG1 062050Z 07014KT 19/00 A3025 RMK A01 T01940002  RH  028%=      5-min Rain = 0
KPG1 062051Z 06014KT 19/00 A3025 RMK A01 T01930003  RH  028%=      5-min Rain = 0
KPG1 062052Z 07014KT 19/00 A3025 RMK A01 T01920003  RH  028%=      5-min Rain = 0
KPG1 062053Z 07011KT 19/00 A3025 RMK A01 T01900002  RH  028%=      5-min Rain = 0
KPG1 062054Z 07011KT 19/00 A3025 RMK A01 T01890003  RH  029%=      5-min Rain = 0
KPG1 062055Z 07010KT 19/00 A3025 RMK A01 T01890002  RH  029%=      5-min Rain = 0
KPG1 062056Z 05009KT 19/00 A3025 RMK A01 T01880002  RH  029%=      5-min Rain = 0
KPG1 062057Z 06010KT 19/00 A3025 RMK A01 T01880003  RH  029%=      5-min Rain = 0
KPG1 062058Z 04007KT 19/01 A3025 RMK A01 T01920005  RH  028%=      5-min Rain = 0
KPG1 062059Z 05007KT 20/01 A3025 RMK A01 T01950005  RH  028%=      5-min Rain = 0
KPG1 062100Z 04007KT 20/01 A3025 RMK A01 T01960005  RH  028%=      5-min Rain = 0
KPG1 062101Z 04011KT 20/01 A3025 RMK A01 T01980005  RH  027%=      5-min Rain = 0
KPG1 062102Z 04011KT 20/00 A3025 RMK A01 T01980004  RH  027%=      5-min Rain = 0
KPG1 062103Z 03013KT 20/00 A3025 RMK A01 T01980004  RH  027%=      5-min Rain = 0
KPG1 062104Z 03013KT 20/00 A3025 RMK A01 T01970003  RH  027%=      5-min Rain = 0
KPG1 062105Z 02013KT 20/00 A3025 RMK A01 T01950003  RH  028%=      5-min Rain = 0
KPG1 062106Z 02013KT 19/00 A3025 RMK A01 T01940002  RH  028%=      5-min Rain = 0
KPG1 062107Z 03013KT 19/00 A3025 RMK A01 T01910002  RH  028%=      5-min Rain = 0
KPG1 062108Z 04011KT 19/00 A3025 RMK A01 T01900002  RH  028%=      5-min Rain = 0
KPG1 062109Z 06010KT 19/00 A3025 RMK A01 T01900002  RH  028%=      5-min Rain = 0
KPG1 062110Z 06009G14KT 19/00 A3025 RMK A01 T01900002  RH  028%=      5-min Rain = 0
KPG1 062111Z 06008KT 19/00 A3025 RMK A01 T01890001  RH  028%=      5-min Rain = 0
KPG1 062112Z 04007G12KT 19/00 A3025 RMK A01 T01890002  RH  028%=      5-min Rain = 0
KPG1 062113Z 05009KT 19/00 A3025 RMK A01 T01900002  RH  028%=      5-min Rain = 0
KPG1 062114Z 04009KT 19/00 A3025 RMK A01 T01920003  RH  028%=      5-min Rain = 0
KPG1 062115Z 03012KT 19/00 A3025 RMK A01 T01940003  RH  028%=      5-min Rain = 0
KPG1 062116Z 03012KT 19/00 A3025 RMK A01 T01930002  RH  028%=      5-min Rain = 0
KPG1 062117Z 04012KT 19/00 A3025 RMK A01 T01910002  RH  028%=      5-min Rain = 0
KPG1 062118Z 03009KT 19/00 A3025 RMK A01 T01910002  RH  028%=      5-min Rain = 0
KPG1 062119Z 04010KT 19/00 A3025 RMK A01 T01910003  RH  028%=      5-min Rain = 0
KPG1 062120Z 07012KT 19/00 A3025 RMK A01 T01910003  RH  028%=      5-min Rain = 0
KPG1 062121Z 06010KT 19/00 A3025 RMK A01 T01900002  RH  028%=      5-min Rain = 0
KPG1 062122Z 07012KT 19/00 A3025 RMK A01 T01890003  RH  029%=      5-min Rain = 0
KPG1 062123Z 05008KT 19/00 A3025 RMK A01 T01890003  RH  029%=      5-min Rain = 0
KPG1 062124Z 06009KT 19/00 A3025 RMK A01 T01900003  RH  028%=      5-min Rain = 0
KPG1 062125Z 07013KT 19/00 A3025 RMK A01 T01910002  RH  028%=      5-min Rain = 0
KPG1 062126Z 06011KT 19/00 A3025 RMK A01 T01910001  RH  028%=      5-min Rain = 0
KPG1 062127Z 04010KT 19/00 A3025 RMK A01 T01920002  RH  028%=      5-min Rain = 0
KPG1 062128Z 05011KT 19/00 A3025 RMK A01 T01930002  RH  028%=      5-min Rain = 0
KPG1 062129Z 04010KT 19/00 A3025 RMK A01 T01940001  RH  027%=      5-min Rain = 0
KPG1 062130Z 04009KT 19/00 A3025 RMK A01 T01930001  RH  028%=      5-min Rain = 0
KPG1 062131Z 05008KT 19/00 A3025 RMK A01 T01940002  RH  028%=      5-min Rain = 0
KPG1 062132Z 06009G14KT 20/00 A3025 RMK A01 T01960003  RH  027%=      5-min Rain = 0
KPG1 062133Z 04010KT 20/00 A3025 RMK A01 T01970002  RH  027%=      5-min Rain = 0
KPG1 062134Z 02013KT 20/00 A3025 RMK A01 T01960002  RH  027%=      5-min Rain = 0
KPG1 062135Z 03011KT 19/00 A3025 RMK A01 T01940001  RH  027%=      5-min Rain = 0
KPG1 062136Z 03009KT 19/00 A3025 RMK A01 T01910000  RH  028%=      5-min Rain = 0
KPG1 062137Z 03011KT 19/00 A3025 RMK A01 T01900001  RH  028%=      5-min Rain = 0
KPG1 062138Z 03012KT 19/00 A3025 RMK A01 T01910002  RH  028%=      5-min Rain = 0
KPG1 062139Z 03010KT 19/00 A3025 RMK A01 T01930002  RH  028%=      5-min Rain = 0
KPG1 062140Z 02010KT 19/00 A3025 RMK A01 T01940002  RH  028%=      5-min Rain = 0
KPG1 062141Z 03010KT 19/00 A3025 RMK A01 T01930002  RH  028%=      5-min Rain = 0
KPG1 062142Z 03012KT 19/00 A3025 RMK A01 T01940003  RH  028%=      5-min Rain = 0
KPG1 062143Z 05008KT 19/00 A3025 RMK A01 T01940002  RH  028%=      5-min Rain = 0
KPG1 062144Z 04008KT 19/00 A3025 RMK A01 T01930002  RH  028%=      5-min Rain = 0
KPG1 062145Z 05010KT 19/00 A3025 RMK A01 T01930002  RH  028%=      5-min Rain = 0
KPG1 062146Z 04010KT 19/00 A3025 RMK A01 T01930002  RH  028%=      5-min Rain = 0
KPG1 062147Z 03012KT 19/00 A3025 RMK A01 T01940002  RH  028%=      5-min Rain = 0
KPG1 062148Z 03010KT 20/00 A3025 RMK A01 T01950003  RH  028%=      5-min Rain = 0
KPG1 062149Z 03010KT 20/00 A3025 RMK A01 T01960003  RH  027%=      5-min Rain = 0
KPG1 062150Z 03010KT 20/00 A3025 RMK A01 T01970003  RH  027%=      5-min Rain = 0
KPG1 062151Z 03012KT 20/00 A3025 RMK A01 T01960002  RH  027%=      5-min Rain = 0
KPG1 062152Z 03010KT 20/00 A3025 RMK A01 T01960002  RH  027%=      5-min Rain = 0
KPG1 062153Z 03011KT 20/00 A3025 RMK A01 T01950002  RH  027%=      5-min Rain = 0
KPG1 062154Z 03011KT 19/00 A3025 RMK A01 T01940001  RH  027%=      5-min Rain = 0
KPG1 062155Z 04010KT 19/00 A3025 RMK A01 T019200-0  RH  027%=      5-min Rain = 0
KPG1 062156Z 03010KT 19/00 A3025 RMK A01 T01920001  RH  028%=      5-min Rain = 0
KPG1 062157Z 03011KT 19/00 A3025 RMK A01 T01920001  RH  028%=      5-min Rain = 0
KPG1 062158Z 04012KT 19/00 A3025 RMK A01 T01910001  RH  028%=      5-min Rain = 0
KPG1 062159Z 05009KT 19/00 A3025 RMK A01 T01910002  RH  028%=      5-min Rain = 0
KPG1 062200Z 07011KT 19/00 A3025 RMK A01 T01910002  RH  028%=      5-min Rain = 0
KPG1 062201Z 07011KT 19/00 A3025 RMK A01 T01930002  RH  028%=      5-min Rain = 0
KPG1 062202Z 06010KT 19/00 A3025 RMK A01 T01930002  RH  028%=      5-min Rain = 0
KPG1 062203Z 06009KT 19/00 A3025 RMK A01 T01930002  RH  028%=      5-min Rain = 0
KPG1 062204Z 04007KT 19/00 A3025 RMK A01 T01930003  RH  028%=      5-min Rain = 0
KPG1 062205Z 04009G14KT 20/00 A3025 RMK A01 T01950002  RH  027%=      5-min Rain = 0
KPG1 062206Z 03012KT 20/00 A3025 RMK A01 T01950002  RH  027%=      5-min Rain = 0
KPG1 062207Z 04009KT 19/00 A3025 RMK A01 T01940001  RH  027%=      5-min Rain = 0
KPG1 062208Z 03009KT 19/00 A3025 RMK A01 T01940002  RH  028%=      5-min Rain = 0
KPG1 062209Z 03009KT 19/00 A3025 RMK A01 T01940002  RH  028%=      5-min Rain = 0
KPG1 062210Z 04007G12KT 19/00 A3025 RMK A01 T01930002  RH  028%=      5-min Rain = 0
KPG1 062211Z 07010KT 19/00 A3025 RMK A01 T01930001  RH  028%=      5-min Rain = 0
KPG1 062212Z 07011KT 19/00 A3025 RMK A01 T01920001  RH  028%=      5-min Rain = 0
KPG1 062213Z 07012KT 19/00 A3025 RMK A01 T01920001  RH  028%=      5-min Rain = 0
KPG1 062214Z 07010KT 19/00 A3025 RMK A01 T01910000  RH  028%=      5-min Rain = 0
KPG1 062215Z 06010KT 19/00 A3025 RMK A01 T01900001  RH  028%=      5-min Rain = 0
KPG1 062216Z 06010KT 19/00 A3025 RMK A01 T01900001  RH  028%=      5-min Rain = 0
KPG1 062217Z 07008KT 19/00 A3025 RMK A01 T01900001  RH  028%=      5-min Rain = 0
KPG1 062218Z 06011KT 19/00 A3025 RMK A01 T01910001  RH  028%=      5-min Rain = 0
KPG1 062219Z 07011KT 19/00 A3025 RMK A01 T01920001  RH  028%=      5-min Rain = 0
KPG1 062220Z 06010KT 19/00 A3025 RMK A01 T01910001  RH  028%=      5-min Rain = 0
KPG1 062221Z 05009KT 19/00 A3025 RMK A01 T01910001  RH  028%=      5-min Rain = 0
KPG1 062222Z 06010KT 19/00 A3025 RMK A01 T01910001  RH  028%=      5-min Rain = 0
KPG1 062223Z 07010KT 19/00 A3025 RMK A01 T01910000  RH  028%=      5-min Rain = 0
KPG1 062224Z 05008KT 19/00 A3025 RMK A01 T01910000  RH  028%=      5-min Rain = 0
KPG1 062225Z 03009KT 19/00 A3025 RMK A01 T01920001  RH  028%=      5-min Rain = 0
KPG1 062226Z 03009KT 19/00 A3025 RMK A01 T01920001  RH  028%=      5-min Rain = 0
KPG1 062227Z 03009KT 19/00 A3025 RMK A01 T01920001  RH  028%=      5-min Rain = 0
KPG1 062228Z 03009KT 19/00 A3025 RMK A01 T01920001  RH  028%=      5-min Rain = 0
KPG1 062229Z 04008KT 19/00 A3025 RMK A01 T01910002  RH  028%=      5-min Rain = 0
KPG1 062230Z 06009KT 19/00 A3025 RMK A01 T01910002  RH  028%=      5-min Rain = 0
KPG1 062231Z 04009KT 19/00 A3025 RMK A01 T01920002  RH  028%=      5-min Rain = 0
KPG1 062232Z 05010KT 19/00 A3025 RMK A01 T01920002  RH  028%=      5-min Rain = 0
KPG1 062233Z 05010KT 19/00 A3025 RMK A01 T01910001  RH  028%=      5-min Rain = 0
KPG1 062234Z 05009KT 19/00 A3025 RMK A01 T01900001  RH  028%=      5-min Rain = 0
KPG1 062235Z 04009KT 19/00 A3025 RMK A01 T01900001  RH  028%=      5-min Rain = 0
KPG1 062236Z 04008KT 19/00 A3025 RMK A01 T01910002  RH  028%=      5-min Rain = 0
KPG1 062237Z 03009KT 19/00 A3025 RMK A01 T01920002  RH  028%=      5-min Rain = 0
KPG1 062238Z 05010KT 19/00 A3025 RMK A01 T01930002  RH  028%=      5-min Rain = 0
KPG1 062239Z 06010KT 19/00 A3025 RMK A01 T01930001  RH  028%=      5-min Rain = 0
KPG1 062240Z 05009KT 19/00 A3025 RMK A01 T01930001  RH  028%=      5-min Rain = 0
KPG1 062241Z 06009KT 19/00 A3025 RMK A01 T01920001  RH  028%=      5-min Rain = 0
KPG1 062242Z 06010KT 19/00 A3025 RMK A01 T01920001  RH  028%=      5-min Rain = 0
KPG1 062243Z 06010KT 19/00 A3025 RMK A01 T01920001  RH  028%=      5-min Rain = 0
KPG1 062244Z 07012KT 19/00 A3025 RMK A01 T01910001  RH  028%=      5-min Rain = 0
KPG1 062245Z 06010KT 19/00 A3025 RMK A01 T01900001  RH  028%=      5-min Rain = 0
KPG1 062246Z 07010KT 19/00 A3025 RMK A01 T01890001  RH  028%=      5-min Rain = 0
KPG1 062247Z 04008KT 19/00 A3025 RMK A01 T01890002  RH  028%=      5-min Rain = 0
KPG1 062248Z 03009KT 19/00 A3025 RMK A01 T01900001  RH  028%=      5-min Rain = 0
KPG1 062249Z 04009KT 19/00 A3025 RMK A01 T01900001  RH  028%=      5-min Rain = 0
KPG1 062250Z 06009KT 19/00 A3025 RMK A01 T01910000  RH  028%=      5-min Rain = 0
KPG1 062251Z 04008KT 19/00 A3025 RMK A01 T01910000  RH  028%=      5-min Rain = 0
KPG1 062252Z 05008KT 19/00 A3025 RMK A01 T01910000  RH  028%=      5-min Rain = 0
KPG1 062253Z 05008KT 19/00 A3025 RMK A01 T01910001  RH  028%=      5-min Rain = 0
KPG1 062254Z 04008KT 19/00 A3025 RMK A01 T01910001  RH  028%=      5-min Rain = 0
KPG1 062255Z 04010KT 19/00 A3025 RMK A01 T01910001  RH  028%=      5-min Rain = 0
KPG1 062256Z 06009KT 19/00 A3025 RMK A01 T01900001  RH  028%=      5-min Rain = 0
KPG1 062257Z 06009KT 19/00 A3025 RMK A01 T01890000  RH  028%=      5-min Rain = 0
KPG1 062258Z 06009KT 19/00 A3025 RMK A01 T01900000  RH  028%=      5-min Rain = 0
KPG1 062259Z 04009KT 19/M00 A3025 RMK A01 T01901001  RH  028%=      5-min Rain = 0
KPG1 062300Z 04008KT 19/00 A3025 RMK A01 T018900-0  RH  028%=      5-min Rain = 0
KPG1 062301Z 05009KT 19/00 A3025 RMK A01 T01900000  RH  028%=      5-min Rain = 0
KPG1 062302Z 05009KT 19/M00 A3025 RMK A01 T01891001  RH  028%=      5-min Rain = 0
KPG1 062303Z 04008KT 19/M00 A3025 RMK A01 T01891001  RH  028%=      5-min Rain = 0
KPG1 062304Z 04009KT 19/00 A3025 RMK A01 T018900-0  RH  028%=      5-min Rain = 0
KPG1 062305Z 04007KT 19/00 A3025 RMK A01 T01890000  RH  028%=      5-min Rain = 0
KPG1 062306Z 03007KT 19/00 A3025 RMK A01 T01890000  RH  028%=      5-min Rain = 0
KPG1 062307Z 04008KT 19/00 A3025 RMK A01 T01880001  RH  028%=      5-min Rain = 0
KPG1 062308Z 04010KT 19/00 A3025 RMK A01 T01880001  RH  028%=      5-min Rain = 0
KPG1 062309Z 03009KT 19/00 A3025 RMK A01 T01880001  RH  028%=      5-min Rain = 0
KPG1 062310Z 04010KT 19/00 A3025 RMK A01 T01870001  RH  029%=      5-min Rain = 0
KPG1 062311Z 04010KT 19/00 A3025 RMK A01 T01870001  RH  029%=      5-min Rain = 0
KPG1 062312Z 04010KT 19/00 A3025 RMK A01 T01870001  RH  029%=      5-min Rain = 0
KPG1 062313Z 04011KT 19/00 A3025 RMK A01 T01870001  RH  029%=      5-min Rain = 0
KPG1 062314Z 05010KT 19/00 A3025 RMK A01 T01870001  RH  029%=      5-min Rain = 0
KPG1 062315Z 05007KT 19/00 A3025 RMK A01 T01860001  RH  029%=      5-min Rain = 0
KPG1 062316Z 05007KT 19/00 A3025 RMK A01 T01860001  RH  029%=      5-min Rain = 0
KPG1 062317Z 04007KT 19/00 A3025 RMK A01 T01860001  RH  029%=      5-min Rain = 0
KPG1 062318Z 04008KT 19/00 A3025 RMK A01 T01860001  RH  029%=      5-min Rain = 0
KPG1 062319Z 04006KT 19/00 A3025 RMK A01 T01860001  RH  029%=      5-min Rain = 0
KPG1 062320Z 03008KT 19/00 A3025 RMK A01 T01860002  RH  029%=      5-min Rain = 0
KPG1 062321Z 04008KT 19/00 A3025 RMK A01 T01860002  RH  029%=      5-min Rain = 0
KPG1 062322Z 04008KT 19/00 A3025 RMK A01 T01860002  RH  029%=      5-min Rain = 0
KPG1 062323Z 06007KT 19/00 A3025 RMK A01 T01850002  RH  029%=      5-min Rain = 0
KPG1 062324Z 06008KT 19/00 A3025 RMK A01 T01850002  RH  029%=      5-min Rain = 0
KPG1 062325Z 04007KT 19/00 A3025 RMK A01 T01850002  RH  029%=      5-min Rain = 0
KPG1 062326Z 06008KT 19/00 A3025 RMK A01 T01850002  RH  029%=      5-min Rain = 0
KPG1 062327Z 06008KT 19/00 A3025 RMK A01 T01850002  RH  029%=      5-min Rain = 0
KPG1 062328Z 05007KT 18/00 A3025 RMK A01 T01840002  RH  029%=      5-min Rain = 0
KPG1 062329Z 05008KT 18/00 A3025 RMK A01 T01840003  RH  029%=      5-min Rain = 0
KPG1 062330Z 05008KT 18/00 A3025 RMK A01 T01840003  RH  029%=      5-min Rain = 0
KPG1 062331Z 06009KT 18/00 A3025 RMK A01 T01830002  RH  030%=      5-min Rain = 0
KPG1 062332Z 05008KT 18/00 A3025 RMK A01 T01830002  RH  030%=      5-min Rain = 0
KPG1 062333Z 05008KT 18/00 A3025 RMK A01 T01830002  RH  030%=      5-min Rain = 0
KPG1 062334Z 06009KT 18/00 A3025 RMK A01 T01830002  RH  030%=      5-min Rain = 0
KPG1 062335Z 06010KT 18/00 A3026 RMK A01 T01830003  RH  030%=      5-min Rain = 0
KPG1 062336Z 06009KT 18/00 A3026 RMK A01 T01820002  RH  030%=      5-min Rain = 0
KPG1 062337Z 05008KT 18/00 A3026 RMK A01 T01820002  RH  030%=      5-min Rain = 0
KPG1 062338Z 06008KT 18/00 A3026 RMK A01 T01820002  RH  030%=      5-min Rain = 0
KPG1 062339Z 05008KT 18/00 A3026 RMK A01 T01810002  RH  030%=      5-min Rain = 0
KPG1 062340Z 05008KT 18/00 A3026 RMK A01 T01810002  RH  030%=      5-min Rain = 0
KPG1 062341Z 05008KT 18/00 A3026 RMK A01 T01800002  RH  030%=      5-min Rain = 0
KPG1 062342Z 05008KT 18/00 A3026 RMK A01 T01810002  RH  030%=      5-min Rain = 0
KPG1 062343Z 05007KT 18/00 A3026 RMK A01 T01800002  RH  030%=      5-min Rain = 0
KPG1 062344Z 05007KT 18/00 A3026 RMK A01 T01800002  RH  030%=      5-min Rain = 0
KPG1 062345Z 05007KT 18/00 A3026 RMK A01 T01790002  RH  030%=      5-min Rain = 0
KPG1 062346Z 04008KT 18/00 A3026 RMK A01 T01790002  RH  030%=      5-min Rain = 0
KPG1 062347Z 05007KT 18/00 A3026 RMK A01 T01780002  RH  030%=      5-min Rain = 0
KPG1 062348Z 05008KT 18/00 A3026 RMK A01 T01780002  RH  030%=      5-min Rain = 0
KPG1 062349Z 06007KT 18/00 A3026 RMK A01 T01780002  RH  030%=      5-min Rain = 0
KPG1 062350Z 06008KT 18/00 A3026 RMK A01 T01780002  RH  031%=      5-min Rain = 0
KPG1 062351Z 05006KT 18/00 A3026 RMK A01 T01770002  RH  030%=      5-min Rain = 0
KPG1 062352Z 06009KT 18/00 A3026 RMK A01 T01770002  RH  031%=      5-min Rain = 0
KPG1 062353Z 06008KT 18/00 A3026 RMK A01 T01760002  RH  031%=      5-min Rain = 0
KPG1 062354Z 06009KT 18/00 A3026 RMK A01 T01760002  RH  031%=      5-min Rain = 0
KPG1 062355Z 05009KT 18/00 A3026 RMK A01 T01760002  RH  031%=      5-min Rain = 0
KPG1 062356Z 05010KT 18/00 A3026 RMK A01 T01760002  RH  031%=      5-min Rain = 0
KPG1 062357Z 06010KT 18/00 A3026 RMK A01 T01770002  RH  031%=      5-min Rain = 0
KPG1 062358Z 05009KT 18/00 A3026 RMK A01 T01770002  RH  031%=      5-min Rain = 0
KPG1 062359Z 06009KT 18/00 A3026 RMK A01 T01770002  RH  031%=      5-min Rain = 0
KPG1 070000Z 05008KT 18/00 A3026 RMK A01 T01760002  RH  031%=      5-min Rain = 0
KPG1 070001Z 06008KT 18/00 A3026 RMK A01 T01760002  RH  031%=      5-min Rain = 0
KPG1 070002Z 05008KT 18/00 A3026 RMK A01 T01750002  RH  031%=      5-min Rain = 0
KPG1 070003Z 05008KT 17/00 A3026 RMK A01 T01740002  RH  031%=      5-min Rain = 0
KPG1 070004Z 05009KT 18/00 A3026 RMK A01 T01750002  RH  031%=      5-min Rain = 0
KPG1 070005Z 06010KT 17/00 A3026 RMK A01 T01740002  RH  031%=      5-min Rain = 0
KPG1 070006Z 06009KT 17/00 A3026 RMK A01 T01740002  RH  031%=      5-min Rain = 0
KPG1 070007Z 05010KT 18/00 A3026 RMK A01 T01750002  RH  031%=      5-min Rain = 0
KPG1 070008Z 05010KT 17/00 A3026 RMK A01 T01740002  RH  031%=      5-min Rain = 0
KPG1 070009Z 06011KT 17/00 A3026 RMK A01 T01740001  RH  031%=      5-min Rain = 0
KPG1 070010Z 05009KT 17/00 A3026 RMK A01 T01740001  RH  031%=      5-min Rain = 0
KPG1 070011Z 06009KT 17/00 A3026 RMK A01 T01740001  RH  031%=      5-min Rain = 0
KPG1 070012Z 06009KT 17/00 A3026 RMK A01 T01740001  RH  031%=      5-min Rain = 0
KPG1 070013Z 06010KT 17/00 A3026 RMK A01 T01740001  RH  031%=      5-min Rain = 0
KPG1 070014Z 06010KT 17/00 A3026 RMK A01 T01740001  RH  031%=      5-min Rain = 0
KPG1 070015Z 06010KT 17/00 A3027 RMK A01 T01740001  RH  031%=      5-min Rain = 0
KPG1 070016Z 05010KT 17/00 A3026 RMK A01 T01730001  RH  031%=      5-min Rain = 0
KPG1 070017Z 04008KT 17/00 A3027 RMK A01 T01740001  RH  031%=      5-min Rain = 0
KPG1 070018Z 05009KT 17/00 A3027 RMK A01 T01730001  RH  031%=      5-min Rain = 0
KPG1 070019Z 06008KT 17/00 A3027 RMK A01 T01720001  RH  031%=      5-min Rain = 0
KPG1 070020Z 05010KT 17/00 A3027 RMK A01 T01720001  RH  031%=      5-min Rain = 0
KPG1 070021Z 05010KT 17/00 A3027 RMK A01 T01720000  RH  031%=      5-min Rain = 0
KPG1 070022Z 06011KT 17/00 A3027 RMK A01 T01720000  RH  031%=      5-min Rain = 0
KPG1 070023Z 06011KT 17/00 A3027 RMK A01 T01730001  RH  031%=      5-min Rain = 0
KPG1 070024Z 06010KT 17/00 A3027 RMK A01 T01730001  RH  031%=      5-min Rain = 0
KPG1 070025Z 06008KT 17/00 A3027 RMK A01 T01730000  RH  031%=      5-min Rain = 0
KPG1 070026Z 05008KT 17/00 A3027 RMK A01 T01720000  RH  031%=      5-min Rain = 0
KPG1 070027Z 06011KT 17/00 A3027 RMK A01 T01720001  RH  031%=      5-min Rain = 0
KPG1 070028Z 06011KT 17/00 A3027 RMK A01 T01720001  RH  031%=      5-min Rain = 0
KPG1 070029Z 05010KT 17/00 A3027 RMK A01 T01720000  RH  031%=      5-min Rain = 0
KPG1 070030Z 06011KT 17/00 A3027 RMK A01 T01720001  RH  031%=      5-min Rain = 0
KPG1 070031Z 06012KT 17/00 A3027 RMK A01 T01720000  RH  031%=      5-min Rain = 0
KPG1 070032Z 06010KT 17/00 A3027 RMK A01 T01720001  RH  031%=      5-min Rain = 0
KPG1 070033Z 05008KT 17/00 A3027 RMK A01 T01720000  RH  031%=      5-min Rain = 0
KPG1 070034Z 05009KT 17/00 A3027 RMK A01 T017100-0  RH  031%=      5-min Rain = 0
KPG1 070035Z 06010KT 17/00 A3027 RMK A01 T017100-0  RH  031%=      5-min Rain = 0
KPG1 070036Z 05009KT 17/00 A3027 RMK A01 T017100-0  RH  031%=      5-min Rain = 0
KPG1 070037Z 06011KT 17/M00 A3027 RMK A01 T01701001  RH  031%=      5-min Rain = 0
KPG1 070038Z 06012KT 17/00 A3027 RMK A01 T017000-0  RH  031%=      5-min Rain = 0
KPG1 070039Z 06010KT 17/00 A3027 RMK A01 T017100-0  RH  031%=      5-min Rain = 0
KPG1 070040Z 06010KT 17/00 A3027 RMK A01 T017100-0  RH  031%=      5-min Rain = 0
KPG1 070041Z 05010KT 17/00 A3027 RMK A01 T017100-0  RH  031%=      5-min Rain = 0
KPG1 070042Z 06011KT 17/M00 A3027 RMK A01 T01701001  RH  031%=      5-min Rain = 0
KPG1 070043Z 05011KT 17/M00 A3027 RMK A01 T01701001  RH  031%=      5-min Rain = 0
KPG1 070044Z 05010KT 17/M00 A3027 RMK A01 T01701001  RH  031%=      5-min Rain = 0
KPG1 070045Z 05008KT 17/M00 A3027 RMK A01 T01701001  RH  031%=      5-min Rain = 0
KPG1 070046Z 05010KT 17/M00 A3027 RMK A01 T01691001  RH  032%=      5-min Rain = 0
KPG1 070047Z 05009KT 17/M00 A3027 RMK A01 T01681001  RH  032%=      5-min Rain = 0
KPG1 070048Z 05009KT 17/M00 A3027 RMK A01 T01681001  RH  032%=      5-min Rain = 0
KPG1 070049Z 06011KT 17/M00 A3027 RMK A01 T01671001  RH  032%=      5-min Rain = 0
KPG1 070050Z 05009KT 17/M00 A3027 RMK A01 T01671001  RH  032%=      5-min Rain = 0
KPG1 070051Z 05009KT 17/M00 A3027 RMK A01 T01671001  RH  032%=      5-min Rain = 0
KPG1 070052Z 05009KT 17/M00 A3027 RMK A01 T01661001  RH  032%=      5-min Rain = 0
KPG1 070053Z 05009KT 17/M00 A3027 RMK A01 T01661001  RH  032%=      5-min Rain = 0
KPG1 070054Z 05009KT 17/M00 A3027 RMK A01 T01651001  RH  032%=      5-min Rain = 0
KPG1 070055Z 05009KT 16/M00 A3027 RMK A01 T01641001  RH  032%=      5-min Rain = 0
KPG1 070056Z 05009KT 16/M00 A3027 RMK A01 T01641001  RH  033%=      5-min Rain = 0
KPG1 070057Z 05008KT 16/M00 A3028 RMK A01 T01641001  RH  033%=      5-min Rain = 0
KPG1 070058Z 05009KT 16/M00 A3028 RMK A01 T01641001  RH  033%=      5-min Rain = 0
KPG1 070059Z 05009KT 16/M00 A3028 RMK A01 T01631001  RH  033%=      5-min Rain = 0
KPG1 070100Z 05008KT 16/M00 A3027 RMK A01 T01631001  RH  033%=      5-min Rain = 0
KPG1 070101Z 05010KT 16/M00 A3027 RMK A01 T01631001  RH  033%=      5-min Rain = 0
KPG1 070102Z 05008KT 16/M00 A3027 RMK A01 T01641001  RH  033%=      5-min Rain = 0
KPG1 070103Z 06009KT 16/M00 A3027 RMK A01 T01641001  RH  033%=      5-min Rain = 0
KPG1 070104Z 06010KT 16/M00 A3028 RMK A01 T01641001  RH  032%=      5-min Rain = 0
KPG1 070105Z 05007KT 16/M00 A3028 RMK A01 T01641001  RH  032%=      5-min Rain = 0
KPG1 070106Z 05007KT 16/M00 A3028 RMK A01 T01641001  RH  032%=      5-min Rain = 0
KPG1 070107Z 05008KT 16/M00 A3028 RMK A01 T01641001  RH  032%=      5-min Rain = 0
KPG1 070108Z 05007KT 16/M00 A3028 RMK A01 T01631002  RH  033%=      5-min Rain = 0
KPG1 070109Z 05007KT 16/M00 A3028 RMK A01 T01621001  RH  033%=      5-min Rain = 0
KPG1 070110Z 05007KT 16/M00 A3028 RMK A01 T01621002  RH  033%=      5-min Rain = 0
KPG1 070111Z 05008KT 16/M00 A3028 RMK A01 T01611001  RH  033%=      5-min Rain = 0
KPG1 070112Z 05008KT 16/M00 A3028 RMK A01 T01611001  RH  033%=      5-min Rain = 0
KPG1 070113Z 05008KT 16/M00 A3028 RMK A01 T01601002  RH  033%=      5-min Rain = 0
KPG1 070114Z 04008KT 16/M00 A3028 RMK A01 T01601002  RH  033%=      5-min Rain = 0
KPG1 070115Z 05009KT 16/M00 A3028 RMK A01 T01591002  RH  033%=      5-min Rain = 0
KPG1 070116Z 05008KT 16/M00 A3028 RMK A01 T01591001  RH  033%=      5-min Rain = 0
KPG1 070117Z 04008KT 16/M00 A3028 RMK A01 T01611001  RH  033%=      5-min Rain = 0
KPG1 070118Z 05008KT 16/M00 A3028 RMK A01 T01611001  RH  033%=      5-min Rain = 0
KPG1 070119Z 04008KT 16/M00 A3028 RMK A01 T01611001  RH  033%=      5-min Rain = 0
KPG1 070120Z 04008KT 16/M00 A3028 RMK A01 T01601002  RH  033%=      5-min Rain = 0
KPG1 070121Z 04006KT 16/M00 A3028 RMK A01 T01591001  RH  033%=      5-min Rain = 0
KPG1 070122Z 03010KT 16/M00 A3028 RMK A01 T01591002  RH  034%=      5-min Rain = 0
KPG1 070123Z 03008KT 16/M00 A3028 RMK A01 T01581001  RH  034%=      5-min Rain = 0
KPG1 070124Z 02011KT 16/M00 A3028 RMK A01 T01581002  RH  034%=      5-min Rain = 0
KPG1 070125Z 02009KT 16/M00 A3028 RMK A01 T01591001  RH  033%=      5-min Rain = 0
KPG1 070126Z 02009KT 16/M00 A3028 RMK A01 T01601001  RH  033%=      5-min Rain = 0
KPG1 070127Z 02011KT 16/M00 A3028 RMK A01 T01601001  RH  033%=      5-min Rain = 0
KPG1 070128Z 02010KT 16/M00 A3028 RMK A01 T01601001  RH  033%=      5-min Rain = 0
KPG1 070129Z 02011KT 16/M00 A3028 RMK A01 T01601001  RH  033%=      5-min Rain = 0
KPG1 070130Z 02011KT 16/M00 A3028 RMK A01 T01611001  RH  033%=      5-min Rain = 0
KPG1 070131Z 02010KT 16/M00 A3028 RMK A01 T01611001  RH  033%=      5-min Rain = 0
KPG1 070132Z 01010KT 16/M00 A3028 RMK A01 T01601001  RH  033%=      5-min Rain = 0
KPG1 070133Z 01010KT 16/M00 A3028 RMK A01 T01601001  RH  033%=      5-min Rain = 0
KPG1 070134Z 01011KT 16/M00 A3028 RMK A01 T01601001  RH  033%=      5-min Rain = 0
KPG1 070135Z 01012KT 16/M00 A3028 RMK A01 T01601001  RH  033%=      5-min Rain = 0
KPG1 070136Z 02011KT 16/M00 A3029 RMK A01 T01601001  RH  033%=      5-min Rain = 0
KPG1 070137Z 02010KT 16/M00 A3029 RMK A01 T01601001  RH  033%=      5-min Rain = 0
KPG1 070138Z 01012KT 16/M00 A3028 RMK A01 T01601001  RH  033%=      5-min Rain = 0
KPG1 070139Z 01011KT 16/M00 A3029 RMK A01 T01601001  RH  033%=      5-min Rain = 0
KPG1 070140Z 02010KT 16/M00 A3029 RMK A01 T01601001  RH  033%=      5-min Rain = 0
KPG1 070141Z 01010KT 16/M00 A3029 RMK A01 T01611001  RH  033%=      5-min Rain = 0
KPG1 070142Z 01011KT 16/M00 A3029 RMK A01 T01601002  RH  033%=      5-min Rain = 0
KPG1 070143Z 01011KT 16/M00 A3029 RMK A01 T01601002  RH  033%=      5-min Rain = 0
KPG1 070144Z 02011KT 16/M00 A3029 RMK A01 T01601002  RH  033%=      5-min Rain = 0
KPG1 070145Z 01010KT 16/M00 A3029 RMK A01 T01601002  RH  033%=      5-min Rain = 0
KPG1 070146Z 01011KT 16/M00 A3029 RMK A01 T01591002  RH  033%=      5-min Rain = 0
KPG1 070147Z 01010KT 16/M00 A3029 RMK A01 T01591001  RH  034%=      5-min Rain = 0
KPG1 070148Z 01010KT 16/M00 A3029 RMK A01 T01581002  RH  034%=      5-min Rain = 0
KPG1 070149Z 01010KT 16/M00 A3029 RMK A01 T01581002  RH  034%=      5-min Rain = 0
KPG1 070150Z 01010KT 16/M00 A3029 RMK A01 T01571002  RH  034%=      5-min Rain = 0
KPG1 070151Z 01010KT 16/M00 A3029 RMK A01 T01571002  RH  034%=      5-min Rain = 0
KPG1 070152Z 00011KT 16/M00 A3029 RMK A01 T01581002  RH  034%=      5-min Rain = 0
KPG1 070153Z 36011KT 16/M00 A3029 RMK A01 T01581002  RH  034%=      5-min Rain = 0
KPG1 070154Z 00013KT 16/M00 A3029 RMK A01 T01581002  RH  034%=      5-min Rain = 0
KPG1 070155Z 00011KT 16/M00 A3029 RMK A01 T01591002  RH  033%=      5-min Rain = 0
KPG1 070156Z 36012KT 16/M00 A3029 RMK A01 T01601002  RH  033%=      5-min Rain = 0
KPG1 070157Z 36013KT 16/M00 A3029 RMK A01 T01601002  RH  033%=      5-min Rain = 0
KPG1 070158Z 00014KT 16/M00 A3029 RMK A01 T01601002  RH  033%=      5-min Rain = 0
KPG1 070159Z 36013KT 16/M00 A3029 RMK A01 T01611002  RH  033%=      5-min Rain = 0
KPG1 070200Z 00013KT 16/M00 A3029 RMK A01 T01611002  RH  033%=      5-min Rain = 0
KPG1 070201Z 00013KT 16/M00 A3029 RMK A01 T01611002  RH  033%=      5-min Rain = 0
KPG1 070202Z 00014KT 16/M00 A3029 RMK A01 T01611002  RH  033%=      5-min Rain = 0
KPG1 070203Z 00013KT 16/M00 A3029 RMK A01 T01611002  RH  033%=      5-min Rain = 0
KPG1 070204Z 01013KT 16/M00 A3029 RMK A01 T01611002  RH  033%=      5-min Rain = 0
KPG1 070205Z 00013KT 16/M00 A3029 RMK A01 T01611002  RH  033%=      5-min Rain = 0
KPG1 070206Z 00013KT 16/M00 A3029 RMK A01 T01611002  RH  033%=      5-min Rain = 0
KPG1 070207Z 00013KT 16/M00 A3029 RMK A01 T01611002  RH  033%=      5-min Rain = 0
KPG1 070208Z 36013KT 16/M00 A3029 RMK A01 T01611002  RH  033%=      5-min Rain = 0
KPG1 070209Z 36013KT 16/M00 A3029 RMK A01 T01611002  RH  033%=      5-min Rain = 0
KPG1 070210Z 36014KT 16/M00 A3029 RMK A01 T01611002  RH  033%=      5-min Rain = 0
KPG1 070211Z 36014KT 16/M00 A3029 RMK A01 T01611002  RH  033%=      5-min Rain = 0
KPG1 070212Z 36015KT 16/M00 A3029 RMK A01 T01611002  RH  033%=      5-min Rain = 0
KPG1 070213Z 36013KT 16/M00 A3029 RMK A01 T01611002  RH  033%=      5-min Rain = 0
KPG1 070214Z 36014KT 16/M00 A3029 RMK A01 T01611002  RH  033%=      5-min Rain = 0
KPG1 070215Z 36015KT 16/M00 A3029 RMK A01 T01601002  RH  033%=      5-min Rain = 0
KPG1 070216Z 36014KT 16/M00 A3029 RMK A01 T01601002  RH  033%=      5-min Rain = 0
KPG1 070217Z 35014KT 16/M00 A3029 RMK A01 T01601003  RH  033%=      5-min Rain = 0
KPG1 070218Z 36013KT 16/M00 A3029 RMK A01 T01601002  RH  033%=      5-min Rain = 0
KPG1 070219Z 36014KT 16/M00 A3029 RMK A01 T01591002  RH  033%=      5-min Rain = 0
KPG1 070220Z 35014KT 16/M00 A3029 RMK A01 T01591002  RH  033%=      5-min Rain = 0
KPG1 070221Z 35014KT 16/M00 A3029 RMK A01 T01591002  RH  033%=      5-min Rain = 0
KPG1 070222Z 36014KT 16/M00 A3029 RMK A01 T01591003  RH  033%=      5-min Rain = 0
KPG1 070223Z 35014KT 16/M00 A3029 RMK A01 T01591002  RH  033%=      5-min Rain = 0
KPG1 070224Z 36014KT 16/M00 A3029 RMK A01 T01591002  RH  033%=      5-min Rain = 0
KPG1 070225Z 36014KT 16/M00 A3029 RMK A01 T01591002  RH  033%=      5-min Rain = 0
KPG1 070226Z 01015KT 16/M00 A3029 RMK A01 T01591002  RH  033%=      5-min Rain = 0
KPG1 070227Z 00014KT 16/M00 A3029 RMK A01 T01601002  RH  033%=      5-min Rain = 0
KPG1 070228Z 36014KT 16/M00 A303 RMK A01 T01601002  RH  033%=      5-min Rain = 0
KPG1 070229Z 00013KT 16/M00 A303 RMK A01 T01591003  RH  033%=      5-min Rain = 0
KPG1 070230Z 36014KT 16/M00 A303 RMK A01 T01591002  RH  033%=      5-min Rain = 0
KPG1 070231Z 36014KT 16/M00 A303 RMK A01 T01581003  RH  033%=      5-min Rain = 0
KPG1 070232Z 36014KT 16/M00 A303 RMK A01 T01581003  RH  033%=      5-min Rain = 0
KPG1 070233Z 36014KT 16/M00 A303 RMK A01 T01581003  RH  033%=      5-min Rain = 0
KPG1 070234Z 35015KT 16/M00 A303 RMK A01 T01581003  RH  033%=      5-min Rain = 0
KPG1 070235Z 36014KT 16/M00 A303 RMK A01 T01581002  RH  033%=      5-min Rain = 0
KPG1 070236Z 36015KT 16/M00 A303 RMK A01 T01581003  RH  033%=      5-min Rain = 0
KPG1 070237Z 00016KT 16/M00 A303 RMK A01 T01571003  RH  033%=      5-min Rain = 0
KPG1 070238Z 36014KT 16/M00 A303 RMK A01 T01581003  RH  033%=      5-min Rain = 0
KPG1 070239Z 36015KT 16/M00 A303 RMK A01 T01571003  RH  033%=      5-min Rain = 0
KPG1 070240Z 36015KT 16/M00 A303 RMK A01 T01571003  RH  034%=      5-min Rain = 0
KPG1 070241Z 36016KT 16/M00 A303 RMK A01 T01571003  RH  034%=      5-min Rain = 0
KPG1 070242Z 36016KT 16/M00 A303 RMK A01 T01561003  RH  034%=      5-min Rain = 0
KPG1 070243Z 35015KT 16/M00 A303 RMK A01 T01561003  RH  034%=      5-min Rain = 0
KPG1 070244Z 35016KT 16/M00 A303 RMK A01 T01561003  RH  034%=      5-min Rain = 0
KPG1 070245Z 35015KT 16/M00 A303 RMK A01 T01561003  RH  034%=      5-min Rain = 0
KPG1 070246Z 35016KT 16/M00 A303 RMK A01 T01551003  RH  034%=      5-min Rain = 0
KPG1 070247Z 35016KT 16/M00 A303 RMK A01 T01551003  RH  034%=      5-min Rain = 0
KPG1 070248Z 36016KT 15/M00 A303 RMK A01 T01541003  RH  034%=      5-min Rain = 0
KPG1 070249Z 36016KT 15/M00 A303 RMK A01 T01541003  RH  034%=      5-min Rain = 0
KPG1 070250Z 36016KT 15/M00 A303 RMK A01 T01541003  RH  034%=      5-min Rain = 0
KPG1 070251Z 35016KT 15/M00 A303 RMK A01 T01541003  RH  034%=      5-min Rain = 0
KPG1 070252Z 35016KT 15/M00 A303 RMK A01 T01541003  RH  034%=      5-min Rain = 0
KPG1 070253Z 36016KT 15/M00 A303 RMK A01 T01541003  RH  034%=      5-min Rain = 0
KPG1 070254Z 00015G20KT 15/M00 A303 RMK A01 T01541003  RH  034%=      5-min Rain = 0
KPG1 070255Z 00014KT 15/M00 A303 RMK A01 T01541004  RH  034%=      5-min Rain = 0
KPG1 070256Z 01014KT 15/M00 A303 RMK A01 T01541004  RH  034%=      5-min Rain = 0
KPG1 070257Z 00014KT 15/M00 A303 RMK A01 T01531004  RH  034%=      5-min Rain = 0
KPG1 070258Z 01014KT 15/M00 A303 RMK A01 T01531004  RH  034%=      5-min Rain = 0
KPG1 070259Z 00013KT 15/M00 A303 RMK A01 T01531004  RH  034%=      5-min Rain = 0
KPG1 070300Z 01016KT 15/M00 A303 RMK A01 T01521004  RH  034%=      5-min Rain = 0
KPG1 070301Z 01015KT 15/M00 A303 RMK A01 T01521003  RH  034%=      5-min Rain = 0
KPG1 070302Z 01014KT 15/M00 A303 RMK A01 T01521004  RH  034%=      5-min Rain = 0
KPG1 070303Z 01016KT 15/M00 A303 RMK A01 T01521004  RH  034%=      5-min Rain = 0
KPG1 070304Z 00015KT 15/M00 A303 RMK A01 T01521004  RH  034%=      5-min Rain = 0
KPG1 070305Z 00017KT 15/M00 A303 RMK A01 T01521004  RH  034%=      5-min Rain = 0
KPG1 070306Z 36015G20KT 15/M00 A303 RMK A01 T01521004  RH  034%=      5-min Rain = 0
KPG1 070307Z 01016KT 15/M00 A303 RMK A01 T01521004  RH  034%=      5-min Rain = 0
KPG1 070308Z 00016KT 15/M00 A303 RMK A01 T01521004  RH  034%=      5-min Rain = 0
KPG1 070309Z 36017KT 15/M00 A303 RMK A01 T01521004  RH  034%=      5-min Rain = 0
KPG1 070310Z 00016KT 15/M00 A303 RMK A01 T01521004  RH  034%=      5-min Rain = 0
KPG1 070311Z 00017KT 15/M00 A303 RMK A01 T01521004  RH  034%=      5-min Rain = 0
KPG1 070312Z 01016KT 15/M00 A303 RMK A01 T01521004  RH  034%=      5-min Rain = 0
KPG1 070313Z 01016KT 15/M00 A303 RMK A01 T01521004  RH  034%=      5-min Rain = 0
KPG1 070314Z 00016KT 15/M00 A303 RMK A01 T01521004  RH  034%=      5-min Rain = 0
KPG1 070315Z 00015KT 15/M00 A303 RMK A01 T01511004  RH  035%=      5-min Rain = 0
KPG1 070316Z 00016KT 15/M00 A303 RMK A01 T01511004  RH  035%=      5-min Rain = 0
KPG1 070317Z 01015KT 15/M00 A303 RMK A01 T01501004  RH  035%=      5-min Rain = 0
KPG1 070318Z 01015KT 15/M00 A303 RMK A01 T01501004  RH  035%=      5-min Rain = 0
KPG1 070319Z 00016KT 15/M00 A303 RMK A01 T01501004  RH  035%=      5-min Rain = 0
KPG1 070320Z 01015KT 15/M00 A303 RMK A01 T01491004  RH  035%=      5-min Rain = 0
KPG1 070321Z 01015KT 15/M00 A303 RMK A01 T01491004  RH  035%=      5-min Rain = 0
KPG1 070322Z 01017KT 15/M00 A303 RMK A01 T01491004  RH  035%=      5-min Rain = 0
KPG1 070323Z 01014KT 15/M00 A303 RMK A01 T01491004  RH  035%=      5-min Rain = 0
KPG1 070324Z 01014KT 15/M00 A303 RMK A01 T01481004  RH  035%=      5-min Rain = 0
KPG1 070325Z 02016G21KT 15/M00 A303 RMK A01 T01471004  RH  035%=      5-min Rain = 0
KPG1 070326Z 01014G19KT 15/M00 A303 RMK A01 T01471004  RH  035%=      5-min Rain = 0
KPG1 070327Z 02015KT 15/M00 A303 RMK A01 T01471004  RH  036%=      5-min Rain = 0
KPG1 070328Z 01013KT 15/M00 A303 RMK A01 T01461004  RH  036%=      5-min Rain = 0
KPG1 070329Z 01014KT 15/M00 A303 RMK A01 T01461004  RH  036%=      5-min Rain = 0
KPG1 070330Z 01014KT 15/M00 A303 RMK A01 T01461004  RH  036%=      5-min Rain = 0
KPG1 070331Z 02013KT 15/M00 A303 RMK A01 T01461004  RH  036%=      5-min Rain = 0
KPG1 070332Z 01013KT 15/M00 A303 RMK A01 T01451004  RH  036%=      5-min Rain = 0
KPG1 070333Z 02013G18KT 15/M00 A3031 RMK A01 T01451004  RH  036%=      5-min Rain = 0
KPG1 070334Z 02014KT 15/M00 A303 RMK A01 T01451004  RH  036%=      5-min Rain = 0
KPG1 070335Z 02015KT 15/M00 A303 RMK A01 T01451004  RH  036%=      5-min Rain = 0
KPG1 070336Z 02015KT 15/M00 A303 RMK A01 T01451004  RH  036%=      5-min Rain = 0
KPG1 070337Z 01014G19KT 15/M00 A3031 RMK A01 T01451004  RH  036%=      5-min Rain = 0
KPG1 070338Z 02015KT 15/M00 A3031 RMK A01 T01451004  RH  036%=      5-min Rain = 0
KPG1 070339Z 01016KT 15/M00 A3031 RMK A01 T01451004  RH  036%=      5-min Rain = 0
KPG1 070340Z 01014KT 15/M00 A3031 RMK A01 T01451004  RH  036%=      5-min Rain = 0
KPG1 070341Z 01014KT 15/M00 A3031 RMK A01 T01451004  RH  036%=      5-min Rain = 0
KPG1 070342Z 01016KT 15/M00 A303 RMK A01 T01451004  RH  036%=      5-min Rain = 0
KPG1 070343Z 00016KT 14/M00 A303 RMK A01 T01441004  RH  036%=      5-min Rain = 0
KPG1 070344Z 02013KT 14/M00 A303 RMK A01 T01441004  RH  036%=      5-min Rain = 0
KPG1 070345Z 01013KT 14/M00 A303 RMK A01 T01431004  RH  036%=      5-min Rain = 0
KPG1 070346Z 01016KT 14/M00 A303 RMK A01 T01431004  RH  036%=      5-min Rain = 0
KPG1 070347Z 01016KT 14/M00 A3031 RMK A01 T01431004  RH  036%=      5-min Rain = 0
KPG1 070348Z 01013KT 14/M00 A3031 RMK A01 T01431004  RH  037%=      5-min Rain = 0
KPG1 070349Z 01013KT 14/M00 A3031 RMK A01 T01431004  RH  037%=      5-min Rain = 0
KPG1 070350Z 01014KT 14/M00 A3031 RMK A01 T01431004  RH  037%=      5-min Rain = 0
KPG1 070351Z 01014KT 14/M00 A3031 RMK A01 T01431004  RH  037%=      5-min Rain = 0
KPG1 070352Z 01013G18KT 14/M00 A3031 RMK A01 T01431003  RH  037%=      5-min Rain = 0
KPG1 070353Z 01015KT 14/M00 A3031 RMK A01 T01421004  RH  037%=      5-min Rain = 0
KPG1 070354Z 01014KT 14/M00 A3031 RMK A01 T01421004  RH  037%=      5-min Rain = 0
KPG1 070355Z 01015KT 14/M00 A3031 RMK A01 T01421004  RH  037%=      5-min Rain = 0
KPG1 070356Z 01014KT 14/M00 A3031 RMK A01 T01421004  RH  037%=      5-min Rain = 0
KPG1 070357Z 01013KT 14/M00 A3031 RMK A01 T01421004  RH  037%=      5-min Rain = 0
KPG1 070358Z 01012KT 14/M00 A3031 RMK A01 T01421004  RH  037%=      5-min Rain = 0
KPG1 070359Z 01015G21KT 14/M00 A3031 RMK A01 T01411004  RH  037%=      5-min Rain = 0
KPG1 070400Z 01013KT 14/M00 A3031 RMK A01 T01411004  RH  037%=      5-min Rain = 0
KPG1 070401Z 00014KT 14/M00 A3031 RMK A01 T01411004  RH  037%=      5-min Rain = 0
KPG1 070402Z 00013KT 14/M00 A3031 RMK A01 T01411004  RH  037%=      5-min Rain = 0
KPG1 070403Z 01013G18KT 14/M00 A3031 RMK A01 T01411004  RH  037%=      5-min Rain = 0
KPG1 070404Z 00016KT 14/M00 A303 RMK A01 T01401004  RH  037%=      5-min Rain = 0
KPG1 070405Z 00015KT 14/M00 A3031 RMK A01 T01401004  RH  037%=      5-min Rain = 0
KPG1 070406Z 00015KT 14/M00 A3031 RMK A01 T01401004  RH  037%=      5-min Rain = 0
KPG1 070407Z 00017KT 14/M00 A3031 RMK A01 T01401004  RH  037%=      5-min Rain = 0
KPG1 070408Z 01014KT 14/M00 A3031 RMK A01 T01401004  RH  037%=      5-min Rain = 0
KPG1 070409Z 00016KT 14/M00 A3031 RMK A01 T01391004  RH  037%=      5-min Rain = 0
KPG1 070410Z 00017KT 14/M00 A3031 RMK A01 T01391004  RH  037%=      5-min Rain = 0
KPG1 070411Z 01017KT 14/M00 A3031 RMK A01 T01391003  RH  038%=      5-min Rain = 0
KPG1 070412Z 00016KT 14/M00 A3031 RMK A01 T01391004  RH  038%=      5-min Rain = 0
KPG1 070413Z 01016KT 14/M00 A3031 RMK A01 T01391004  RH  038%=      5-min Rain = 0
KPG1 070414Z 01015G20KT 14/M00 A3031 RMK A01 T01381004  RH  038%=      5-min Rain = 0
KPG1 070415Z 01015KT 14/M00 A3031 RMK A01 T01381004  RH  038%=      5-min Rain = 0
KPG1 070416Z 01014KT 14/M00 A3031 RMK A01 T01381003  RH  038%=      5-min Rain = 0
KPG1 070417Z 01016KT 14/M00 A3031 RMK A01 T01381004  RH  038%=      5-min Rain = 0
KPG1 070418Z 01014KT 14/M00 A3031 RMK A01 T01381003  RH  038%=      5-min Rain = 0
KPG1 070419Z 01013KT 14/M00 A3031 RMK A01 T01371004  RH  038%=      5-min Rain = 0
KPG1 070420Z 01013KT 14/M00 A3031 RMK A01 T01371004  RH  038%=      5-min Rain = 0
KPG1 070421Z 00014G19KT 14/M00 A3031 RMK A01 T01371004  RH  038%=      5-min Rain = 0
KPG1 070422Z 01015KT 14/M00 A3031 RMK A01 T01371003  RH  038%=      5-min Rain = 0
KPG1 070423Z 01017KT 14/M00 A3031 RMK A01 T01361004  RH  038%=      5-min Rain = 0
KPG1 070424Z 00018KT 14/M00 A3031 RMK A01 T01361004  RH  038%=      5-min Rain = 0
KPG1 070425Z 01016KT 14/M00 A3031 RMK A01 T01371004  RH  038%=      5-min Rain = 0
KPG1 070426Z 01016KT 14/M00 A3031 RMK A01 T01371003  RH  038%=      5-min Rain = 0
KPG1 070427Z 01015KT 14/M00 A3031 RMK A01 T01371003  RH  038%=      5-min Rain = 0
KPG1 070428Z 01015KT 14/M00 A3031 RMK A01 T01361003  RH  038%=      5-min Rain = 0
KPG1 070429Z 01017KT 14/M00 A3031 RMK A01 T01371003  RH  038%=      5-min Rain = 0
KPG1 070430Z 01015KT 14/M00 A3031 RMK A01 T01371003  RH  038%=      5-min Rain = 0
KPG1 070431Z 01015KT 14/M00 A3031 RMK A01 T01361003  RH  038%=      5-min Rain = 0
KPG1 070432Z 01016KT 14/M00 A3031 RMK A01 T01361003  RH  038%=      5-min Rain = 0
KPG1 070433Z 00017KT 14/M00 A3031 RMK A01 T01361003  RH  038%=      5-min Rain = 0
KPG1 070434Z 01015G20KT 14/M00 A3031 RMK A01 T01361003  RH  038%=      5-min Rain = 0
KPG1 070435Z 01015KT 14/M00 A3031 RMK A01 T01371003  RH  038%=      5-min Rain = 0
KPG1 070436Z 01016KT 14/M00 A3031 RMK A01 T01371003  RH  038%=      5-min Rain = 0
KPG1 070437Z 00016KT 14/M00 A3031 RMK A01 T01371003  RH  038%=      5-min Rain = 0
KPG1 070438Z 00016KT 14/M00 A3031 RMK A01 T01371003  RH  038%=      5-min Rain = 0
KPG1 070439Z 01015KT 14/M00 A3031 RMK A01 T01361003  RH  038%=      5-min Rain = 0
KPG1 070440Z 01015KT 14/M00 A3031 RMK A01 T01361003  RH  038%=      5-min Rain = 0
KPG1 070441Z 01015KT 14/M00 A3031 RMK A01 T01371003  RH  038%=      5-min Rain = 0
KPG1 070442Z 00015KT 14/M00 A3031 RMK A01 T01371003  RH  038%=      5-min Rain = 0
KPG1 070443Z 01014KT 14/M00 A3031 RMK A01 T01371002  RH  038%=      5-min Rain = 0
KPG1 070444Z 00016KT 14/M00 A3031 RMK A01 T01371003  RH  038%=      5-min Rain = 0
KPG1 070445Z 01017KT 14/M00 A3031 RMK A01 T01371003  RH  038%=      5-min Rain = 0
KPG1 070446Z 00017KT 14/M00 A3031 RMK A01 T01371003  RH  038%=      5-min Rain = 0
KPG1 070447Z 00018KT 14/M00 A3031 RMK A01 T01371003  RH  038%=      5-min Rain = 0
KPG1 070448Z 00017KT 14/M00 A3031 RMK A01 T01371003  RH  038%=      5-min Rain = 0
KPG1 070449Z 00016KT 14/M00 A3031 RMK A01 T01371003  RH  038%=      5-min Rain = 0
KPG1 070450Z 01015KT 14/M00 A3031 RMK A01 T01371003  RH  038%=      5-min Rain = 0
KPG1 070451Z 02014KT 14/M00 A3032 RMK A01 T01371003  RH  038%=      5-min Rain = 0
KPG1 070452Z 01012KT 14/M00 A3032 RMK A01 T01371003  RH  038%=      5-min Rain = 0
KPG1 070453Z 00015KT 14/M00 A3031 RMK A01 T01361003  RH  038%=      5-min Rain = 0
KPG1 070454Z 01014KT 14/M00 A3032 RMK A01 T01361003  RH  038%=      5-min Rain = 0
KPG1 070455Z 00015KT 14/M00 A3031 RMK A01 T01361003  RH  038%=      5-min Rain = 0
KPG1 070456Z 00016KT 14/M00 A3031 RMK A01 T01361003  RH  039%=      5-min Rain = 0
KPG1 070457Z 01015KT 14/M00 A3031 RMK A01 T01361003  RH  039%=      5-min Rain = 0
KPG1 070458Z 01014KT 14/M00 A3031 RMK A01 T01361003  RH  039%=      5-min Rain = 0
KPG1 070459Z 01014KT 14/M00 A3031 RMK A01 T01361003  RH  039%=      5-min Rain = 0
KPG1 070500Z 01013KT 14/M00 A3031 RMK A01 T01361003  RH  039%=      5-min Rain = 0
KPG1 070501Z 36012KT 14/M00 A3031 RMK A01 T01361003  RH  039%=      5-min Rain = 0
KPG1 070502Z 00013KT 14/M00 A3031 RMK A01 T01361003  RH  039%=      5-min Rain = 0
KPG1 070503Z 01012KT 14/M00 A3031 RMK A01 T01361003  RH  039%=      5-min Rain = 0
KPG1 070504Z 01011KT 14/M00 A3031 RMK A01 T01361003  RH  039%=      5-min Rain = 0
KPG1 070505Z 00013KT 14/M00 A3031 RMK A01 T01361003  RH  038%=      5-min Rain = 0
KPG1 070506Z 36016KT 14/M00 A3031 RMK A01 T01371003  RH  038%=      5-min Rain = 0
KPG1 070507Z 35016KT 14/M00 A3031 RMK A01 T01381002  RH  038%=      5-min Rain = 0
KPG1 070508Z 00014KT 14/M00 A3031 RMK A01 T01391002  RH  038%=      5-min Rain = 0
KPG1 070509Z 00014KT 14/M00 A3031 RMK A01 T01391002  RH  038%=      5-min Rain = 0
KPG1 070510Z 00015KT 14/M00 A3031 RMK A01 T01391002  RH  038%=      5-min Rain = 0
KPG1 070511Z 00015KT 14/M00 A3031 RMK A01 T01391002  RH  038%=      5-min Rain = 0
KPG1 070512Z 00014KT 14/M00 A3031 RMK A01 T01391002  RH  038%=      5-min Rain = 0
KPG1 070513Z 36013KT 14/M00 A3031 RMK A01 T01391002  RH  038%=      5-min Rain = 0
KPG1 070514Z 00016KT 14/M00 A3031 RMK A01 T01391003  RH  038%=      5-min Rain = 0
KPG1 070515Z 01014KT 14/M00 A3031 RMK A01 T01391003  RH  038%=      5-min Rain = 0
KPG1 070516Z 01013KT 14/M00 A3032 RMK A01 T01391002  RH  038%=      5-min Rain = 0
KPG1 070517Z 01012KT 14/M00 A3032 RMK A01 T01391003  RH  038%=      5-min Rain = 0
KPG1 070518Z 01012KT 14/M00 A3032 RMK A01 T01381003  RH  038%=      5-min Rain = 0
KPG1 070519Z 02013KT 14/M00 A3032 RMK A01 T01381003  RH  038%=      5-min Rain = 0
KPG1 070520Z 02012KT 14/M00 A3032 RMK A01 T01381003  RH  038%=      5-min Rain = 0
KPG1 070521Z 01012KT 14/M00 A3032 RMK A01 T01381002  RH  038%=      5-min Rain = 0
KPG1 070522Z 02014KT 14/M00 A3032 RMK A01 T01381002  RH  038%=      5-min Rain = 0
KPG1 070523Z 01012KT 14/M00 A3032 RMK A01 T01381003  RH  038%=      5-min Rain = 0
KPG1 070524Z 01012KT 14/M00 A3032 RMK A01 T01381003  RH  038%=      5-min Rain = 0
KPG1 070525Z 01013KT 14/M00 A3032 RMK A01 T01371003  RH  038%=      5-min Rain = 0
KPG1 070526Z 01015KT 14/M00 A3032 RMK A01 T01371003  RH  038%=      5-min Rain = 0
KPG1 070527Z 01014KT 14/M00 A3032 RMK A01 T01371003  RH  038%=      5-min Rain = 0
KPG1 070528Z 00012KT 14/M00 A3032 RMK A01 T01371003  RH  038%=      5-min Rain = 0
KPG1 070529Z 01013KT 14/M00 A3032 RMK A01 T01371003  RH  038%=      5-min Rain = 0
KPG1 070530Z 01013KT 14/M00 A3032 RMK A01 T01371003  RH  038%=      5-min Rain = 0
KPG1 070531Z 00012KT 14/M00 A3032 RMK A01 T01371003  RH  038%=      5-min Rain = 0
KPG1 070532Z 01013KT 14/M00 A3032 RMK A01 T01371003  RH  038%=      5-min Rain = 0
KPG1 070533Z 01013KT 14/M00 A3032 RMK A01 T01371003  RH  038%=      5-min Rain = 0
KPG1 070534Z 00013KT 14/M00 A3032 RMK A01 T01371003  RH  038%=      5-min Rain = 0
KPG1 070535Z 01013KT 14/M00 A3032 RMK A01 T01371003  RH  038%=      5-min Rain = 0
KPG1 070536Z 00013KT 14/M00 A3032 RMK A01 T01371003  RH  038%=      5-min Rain = 0
KPG1 070537Z 01013KT 14/M00 A3032 RMK A01 T01381003  RH  038%=      5-min Rain = 0
KPG1 070538Z 00013KT 14/M00 A3032 RMK A01 T01371003  RH  038%=      5-min Rain = 0
KPG1 070539Z 01013KT 14/M00 A3032 RMK A01 T01371003  RH  038%=      5-min Rain = 0
KPG1 070540Z 00013KT 14/M00 A3032 RMK A01 T01371003  RH  038%=      5-min Rain = 0
KPG1 070541Z 01012KT 14/M00 A3032 RMK A01 T01371003  RH  038%=      5-min Rain = 0
KPG1 070542Z 00014KT 14/M00 A3031 RMK A01 T01371003  RH  038%=      5-min Rain = 0
KPG1 070543Z 01013KT 14/M00 A3032 RMK A01 T01371003  RH  038%=      5-min Rain = 0
KPG1 070544Z 01013KT 14/M00 A3032 RMK A01 T01371003  RH  038%=      5-min Rain = 0
KPG1 070545Z 01013KT 14/M00 A3032 RMK A01 T01371003  RH  038%=      5-min Rain = 0
KPG1 070546Z 00013KT 14/M00 A3032 RMK A01 T01371003  RH  038%=      5-min Rain = 0
KPG1 070547Z 36015KT 14/M00 A3032 RMK A01 T01371003  RH  038%=      5-min Rain = 0
KPG1 070548Z 00014KT 14/M00 A3032 RMK A01 T01371003  RH  038%=      5-min Rain = 0
KPG1 070549Z 36013KT 14/M00 A3032 RMK A01 T01381002  RH  038%=      5-min Rain = 0
KPG1 070550Z 00015KT 14/M00 A3031 RMK A01 T01381003  RH  038%=      5-min Rain = 0
KPG1 070551Z 00015KT 14/M00 A3031 RMK A01 T01381003  RH  038%=      5-min Rain = 0
KPG1 070552Z 00015KT 14/M00 A3031 RMK A01 T01381003  RH  038%=      5-min Rain = 0
KPG1 070553Z 00014KT 14/M00 A3031 RMK A01 T01381003  RH  038%=      5-min Rain = 0
KPG1 070554Z 36014KT 14/M00 A3031 RMK A01 T01381003  RH  038%=      5-min Rain = 0
KPG1 070555Z 01015KT 14/M00 A3031 RMK A01 T01391003  RH  038%=      5-min Rain = 0
KPG1 070556Z 00013KT 14/M00 A3031 RMK A01 T01391002  RH  038%=      5-min Rain = 0
KPG1 070557Z 00015KT 14/M00 A3031 RMK A01 T01391003  RH  038%=      5-min Rain = 0
KPG1 070558Z 36014KT 14/M00 A3031 RMK A01 T01401003  RH  038%=      5-min Rain = 0
KPG1 070559Z 01013KT 14/M00 A3031 RMK A01 T01401003  RH  038%=      5-min Rain = 0

Page generated in 0.0764 seconds.